Time,TemperatureF,DewpointF,PressureIn,WindDirection,WindDirectionDegrees,WindSpeedMPH,WindSpeedGustMPH,Humidity,HourlyPrecipIn,Conditions,Clouds,dailyrainin,SoftwareType,DateUTC
2013-07-29 00:01:00,61.6,58.6,29.95,ENE,67,0.0,0.0,90,0.00,,---,0.06,VWS V14.01,2013-07-29 04:01:00,
2013-07-29 00:02:00,61.6,58.6,29.95,ENE,67,0.0,0.0,90,0.00,,---,0.06,VWS V14.01,2013-07-29 04:02:00,
2013-07-29 00:06:00,61.5,58.5,29.96,ENE,67,0.0,0.0,90,0.00,,---,0.00,VWS V14.01,2013-07-29 04:06:00,
2013-07-29 00:07:00,61.5,58.5,29.96,ENE,67,0.0,0.0,90,0.00,,---,0.00,VWS V14.01,2013-07-29 04:07:00,
2013-07-29 00:11:00,61.3,58.3,29.96,ENE,67,0.0,0.0,90,0.00,,---,0.00,VWS V14.01,2013-07-29 04:11:00,
2013-07-29 00:12:00,61.3,58.3,29.96,ENE,67,0.0,0.0,90,0.00,,---,0.00,VWS V14.01,2013-07-29 04:12:00,
2013-07-29 00:16:00,61.3,58.3,29.96,ENE,67,0.0,0.0,90,0.00,,---,0.00,VWS V14.01,2013-07-29 04:16:00,
2013-07-29 00:17:00,61.2,58.2,29.96,ENE,67,0.0,0.0,90,0.00,,---,0.00,VWS V14.01,2013-07-29 04:17:00,
2013-07-29 00:21:00,61.0,58.0,29.96,SE,138,0.0,0.0,90,0.00,,---,0.00,VWS V14.01,2013-07-29 04:21:00,
2013-07-29 00:22:00,61.0,58.0,29.96,SE,138,0.0,0.0,90,0.00,,---,0.00,VWS V14.01,2013-07-29 04:22:00,
2013-07-29 00:26:00,60.9,58.0,29.96,SE,138,0.0,1.0,90,0.00,,---,0.00,VWS V14.01,2013-07-29 04:26:00,
2013-07-29 00:27:00,60.9,58.0,29.96,SE,138,0.0,0.0,90,0.00,,---,0.00,VWS V14.01,2013-07-29 04:27:00,
2013-07-29 00:31:00,60.7,57.8,29.96,SE,138,0.0,0.0,90,0.00,,---,0.00,VWS V14.01,2013-07-29 04:31:00,
2013-07-29 00:32:00,60.7,57.8,29.96,SE,138,0.0,0.0,90,0.00,,---,0.00,VWS V14.01,2013-07-29 04:32:00,
2013-07-29 00:36:00,60.7,57.8,29.96,SE,138,0.0,0.0,90,0.00,,---,0.00,VWS V14.01,2013-07-29 04:36:00,
2013-07-29 00:37:00,60.7,57.8,29.96,SE,138,0.0,0.0,90,0.00,,---,0.00,VWS V14.01,2013-07-29 04:37:00,
2013-07-29 00:38:00,60.7,57.8,29.96,SE,138,1.0,1.0,90,0.00,,---,0.00,VWS V14.01,2013-07-29 04:38:00,
2013-07-29 00:41:00,60.5,57.6,29.96,SE,138,0.0,0.0,90,0.00,,---,0.00,VWS V14.01,2013-07-29 04:41:00,
2013-07-29 00:42:00,60.5,57.6,29.96,SE,138,0.0,0.0,90,0.00,,---,0.00,VWS V14.01,2013-07-29 04:42:00,
2013-07-29 00:43:00,60.5,57.6,29.96,SE,138,0.0,0.0,90,0.00,,---,0.00,VWS V14.01,2013-07-29 04:43:00,
2013-07-29 00:46:00,60.4,57.5,29.96,SE,138,0.0,0.0,90,0.00,,---,0.00,VWS V14.01,2013-07-29 04:46:00,
2013-07-29 00:47:00,60.4,57.8,29.96,SE,138,0.0,0.0,91,0.00,,---,0.00,VWS V14.01,2013-07-29 04:47:00,
2013-07-29 00:48:00,60.4,57.8,29.97,SE,127,0.0,0.0,91,0.00,,---,0.00,VWS V14.01,2013-07-29 04:48:00,
2013-07-29 00:51:00,60.4,57.8,29.97,SE,127,0.0,0.0,91,0.00,,---,0.00,VWS V14.01,2013-07-29 04:51:00,
2013-07-29 00:52:00,60.4,57.8,29.97,SE,127,0.0,0.0,91,0.00,,---,0.00,VWS V14.01,2013-07-29 04:52:00,
2013-07-29 00:53:00,60.2,57.6,29.97,SE,127,0.0,0.0,91,0.00,,---,0.00,VWS V14.01,2013-07-29 04:53:00,
2013-07-29 00:56:00,60.2,57.6,29.97,SE,127,0.0,0.0,91,0.00,,---,0.00,VWS V14.01,2013-07-29 04:56:00,
2013-07-29 00:57:00,60.2,57.6,29.97,SE,127,0.0,0.0,91,0.00,,---,0.00,VWS V14.01,2013-07-29 04:57:00,
2013-07-29 00:58:00,60.2,57.6,29.97,SE,126,0.0,0.0,91,0.00,,---,0.00,VWS V14.01,2013-07-29 04:58:00,
2013-07-29 01:01:00,60.1,57.5,29.97,SE,126,0.0,0.0,91,0.00,,---,0.00,VWS V14.01,2013-07-29 05:01:00,
2013-07-29 01:02:00,60.1,57.5,29.97,SE,126,0.0,0.0,91,0.00,,---,0.00,VWS V14.01,2013-07-29 05:02:00,
2013-07-29 01:03:00,60.1,57.5,29.98,SE,126,0.0,0.0,91,0.00,,---,0.00,VWS V14.01,2013-07-29 05:03:00,
2013-07-29 01:07:00,60.1,57.5,29.98,SE,126,0.0,1.0,91,0.00,,---,0.00,VWS V14.01,2013-07-29 05:07:00,
2013-07-29 01:08:00,60.1,57.5,29.98,SE,126,0.0,1.0,91,0.00,,---,0.00,VWS V14.01,2013-07-29 05:08:00,
2013-07-29 01:12:00,59.9,57.3,29.98,SE,126,0.0,0.0,91,0.00,,---,0.00,VWS V14.01,2013-07-29 05:12:00,
2013-07-29 01:13:00,59.9,57.3,29.98,SE,126,0.0,0.0,91,0.00,,---,0.00,VWS V14.01,2013-07-29 05:13:00,
2013-07-29 01:17:00,59.9,57.3,29.98,SE,126,0.0,0.0,91,0.00,,---,0.00,VWS V14.01,2013-07-29 05:17:00,
2013-07-29 01:18:00,59.9,57.3,29.98,SE,126,0.0,0.0,91,0.00,,---,0.00,VWS V14.01,2013-07-29 05:18:00,
2013-07-29 01:22:00,59.8,57.2,29.98,SE,126,0.0,0.0,91,0.00,,---,0.00,VWS V14.01,2013-07-29 05:22:00,
2013-07-29 01:23:00,59.8,57.2,29.98,SE,126,0.0,0.0,91,0.00,,---,0.00,VWS V14.01,2013-07-29 05:23:00,
2013-07-29 01:27:00,59.6,57.0,29.98,SE,126,0.0,0.0,91,0.00,,---,0.00,VWS V14.01,2013-07-29 05:27:00,
2013-07-29 01:28:00,59.6,57.0,29.98,SE,126,0.0,0.0,91,0.00,,---,0.00,VWS V14.01,2013-07-29 05:28:00,
2013-07-29 01:32:00,59.6,57.0,29.98,SE,126,0.0,0.0,91,0.00,,---,0.00,VWS V14.01,2013-07-29 05:32:00,
2013-07-29 01:33:00,59.6,57.0,29.98,SE,126,0.0,0.0,91,0.00,,---,0.00,VWS V14.01,2013-07-29 05:33:00,
2013-07-29 01:37:00,59.5,56.9,29.98,SE,126,0.0,0.0,91,0.00,,---,0.00,VWS V14.01,2013-07-29 05:37:00,
2013-07-29 01:38:00,59.5,56.9,29.98,SE,126,0.0,0.0,91,0.00,,---,0.00,VWS V14.01,2013-07-29 05:38:00,
2013-07-29 01:42:00,59.3,56.7,29.98,SE,126,0.0,0.0,91,0.00,,---,0.00,VWS V14.01,2013-07-29 05:42:00,
2013-07-29 01:43:00,59.3,56.7,29.98,SE,126,0.0,0.0,91,0.00,,---,0.00,VWS V14.01,2013-07-29 05:43:00,
2013-07-29 01:44:00,59.3,56.7,29.98,SE,126,0.0,0.0,91,0.00,,---,0.00,VWS V14.01,2013-07-29 05:44:00,
2013-07-29 01:47:00,59.3,56.7,29.98,WNW,294,7.0,7.0,91,0.00,,---,0.00,VWS V14.01,2013-07-29 05:47:00,
2013-07-29 01:48:00,59.3,56.7,29.98,NW,321,3.0,7.0,91,0.00,,---,0.00,VWS V14.01,2013-07-29 05:48:00,
2013-07-29 01:49:00,59.3,56.7,29.98,WNW,300,4.0,6.0,91,0.00,,---,0.00,VWS V14.01,2013-07-29 05:49:00,
2013-07-29 01:52:00,59.3,56.7,29.98,NW,319,2.0,3.0,91,0.00,,---,0.00,VWS V14.01,2013-07-29 05:52:00,
2013-07-29 01:53:00,59.3,56.7,29.98,NW,319,0.0,3.0,91,0.00,,---,0.00,VWS V14.01,2013-07-29 05:53:00,
2013-07-29 01:54:00,59.3,56.7,29.98,NW,315,6.0,10.0,91,0.00,,---,0.00,VWS V14.01,2013-07-29 05:54:00,
2013-07-29 01:57:00,59.3,56.7,29.98,North,11,1.0,4.0,91,0.00,,---,0.00,VWS V14.01,2013-07-29 05:57:00,
2013-07-29 01:58:00,59.3,56.7,29.98,North,11,2.0,4.0,91,0.00,,---,0.00,VWS V14.01,2013-07-29 05:58:00,
2013-07-29 01:59:00,59.3,56.7,29.98,NW,323,3.0,6.0,91,0.00,,---,0.00,VWS V14.01,2013-07-29 05:59:00,
2013-07-29 02:02:00,59.5,56.9,29.98,NW,319,1.0,2.0,91,0.00,,---,0.00,VWS V14.01,2013-07-29 06:02:00,
2013-07-29 02:03:00,59.5,56.9,29.98,NW,319,1.0,2.0,91,0.00,,---,0.00,VWS V14.01,2013-07-29 06:03:00,
2013-07-29 02:04:00,59.6,57.0,29.98,NW,319,0.0,1.0,91,0.00,,---,0.00,VWS V14.01,2013-07-29 06:04:00,
2013-07-29 02:08:00,59.8,56.9,29.98,NW,306,3.0,6.0,90,0.00,,---,0.00,VWS V14.01,2013-07-29 06:08:00,
2013-07-29 02:09:00,59.9,56.7,29.98,NW,305,3.0,4.0,89,0.00,,---,0.00,VWS V14.01,2013-07-29 06:09:00,
2013-07-29 02:13:00,60.1,56.8,29.98,NW,314,2.0,9.0,89,0.00,,---,0.00,VWS V14.01,2013-07-29 06:13:00,
2013-07-29 02:14:00,60.2,57.0,29.98,NW,324,6.0,7.0,89,0.00,,---,0.00,VWS V14.01,2013-07-29 06:14:00,
2013-07-29 02:18:00,60.4,56.8,29.97,NW,304,0.0,4.0,88,0.00,,---,0.00,VWS V14.01,2013-07-29 06:18:00,
2013-07-29 02:19:00,60.5,56.6,29.97,NW,304,0.0,0.0,87,0.00,,---,0.00,VWS V14.01,2013-07-29 06:19:00,
2013-07-29 02:23:00,60.7,56.5,29.97,NNW,327,3.0,11.0,86,0.00,,---,0.00,VWS V14.01,2013-07-29 06:23:00,
2013-07-29 02:24:00,60.9,56.7,29.97,NW,314,1.0,2.0,86,0.00,,---,0.00,VWS V14.01,2013-07-29 06:24:00,
2013-07-29 02:28:00,61.0,56.5,29.97,NNW,329,2.0,4.0,85,0.00,,---,0.00,VWS V14.01,2013-07-29 06:28:00,
2013-07-29 02:29:00,61.0,56.5,29.97,NW,304,1.0,2.0,85,0.00,,---,0.00,VWS V14.01,2013-07-29 06:29:00,
2013-07-29 02:33:00,61.2,56.3,29.98,North,10,0.0,2.0,84,0.00,,---,0.00,VWS V14.01,2013-07-29 06:33:00,
2013-07-29 02:34:00,61.2,56.3,29.98,North,10,0.0,2.0,84,0.00,,---,0.00,VWS V14.01,2013-07-29 06:34:00,
2013-07-29 02:38:00,61.3,56.4,29.98,NW,322,1.0,2.0,84,0.00,,---,0.00,VWS V14.01,2013-07-29 06:38:00,
2013-07-29 02:39:00,61.3,56.1,29.98,NW,323,0.0,2.0,83,0.00,,---,0.00,VWS V14.01,2013-07-29 06:39:00,
2013-07-29 02:43:00,61.5,56.3,29.98,NW,323,0.0,0.0,83,0.00,,---,0.00,VWS V14.01,2013-07-29 06:43:00,
2013-07-29 02:44:00,61.5,56.3,29.98,NW,323,0.0,1.0,83,0.00,,---,0.00,VWS V14.01,2013-07-29 06:44:00,
2013-07-29 02:48:00,61.5,56.3,29.98,NW,323,0.0,0.0,83,0.00,,---,0.00,VWS V14.01,2013-07-29 06:48:00,
2013-07-29 02:49:00,61.5,56.3,29.98,NW,323,0.0,0.0,83,0.00,,---,0.00,VWS V14.01,2013-07-29 06:49:00,
2013-07-29 02:53:00,61.5,56.3,29.98,NNW,346,0.0,1.0,83,0.00,,---,0.00,VWS V14.01,2013-07-29 06:53:00,
2013-07-29 02:54:00,61.5,56.3,29.98,NW,318,3.0,4.0,83,0.00,,---,0.00,VWS V14.01,2013-07-29 06:54:00,
2013-07-29 02:58:00,61.3,55.8,29.98,North,5,0.0,0.0,82,0.00,,---,0.00,VWS V14.01,2013-07-29 06:58:00,
2013-07-29 02:59:00,61.3,55.8,29.98,North,5,0.0,0.0,82,0.00,,---,0.00,VWS V14.01,2013-07-29 06:59:00,
2013-07-29 03:03:00,61.3,56.1,29.98,WSW,255,0.0,4.0,83,0.00,,---,0.00,VWS V14.01,2013-07-29 07:03:00,
2013-07-29 03:04:00,61.3,56.1,29.98,WSW,255,0.0,4.0,83,0.00,,---,0.00,VWS V14.01,2013-07-29 07:04:00,
2013-07-29 03:09:00,61.2,56.0,29.98,SSW,211,0.0,0.0,83,0.00,,---,0.00,VWS V14.01,2013-07-29 07:09:00,
2013-07-29 03:14:00,61.0,55.5,29.98,SSW,211,0.0,0.0,82,0.00,,---,0.00,VWS V14.01,2013-07-29 07:14:00,
2013-07-29 03:15:00,61.0,55.5,29.98,SSW,211,0.0,0.0,82,0.00,,---,0.00,VWS V14.01,2013-07-29 07:15:00,
2013-07-29 03:19:00,60.9,55.4,29.99,SSW,210,0.0,0.0,82,0.00,,---,0.00,VWS V14.01,2013-07-29 07:19:00,
2013-07-29 03:20:00,60.9,55.4,29.99,SSW,211,0.0,1.0,82,0.00,,---,0.00,VWS V14.01,2013-07-29 07:20:00,
2013-07-29 03:24:00,60.5,55.0,29.99,SSW,211,0.0,0.0,82,0.00,,---,0.00,VWS V14.01,2013-07-29 07:24:00,
2013-07-29 03:25:00,60.5,55.0,29.99,SSW,211,0.0,0.0,82,0.00,,---,0.00,VWS V14.01,2013-07-29 07:25:00,
2013-07-29 03:29:00,60.4,54.9,29.99,SSW,211,0.0,0.0,82,0.00,,---,0.00,VWS V14.01,2013-07-29 07:29:00,
2013-07-29 03:30:00,60.4,54.9,29.99,SSW,211,0.0,0.0,82,0.00,,---,0.00,VWS V14.01,2013-07-29 07:30:00,
2013-07-29 03:34:00,60.1,54.6,29.99,SSW,211,0.0,0.0,82,0.00,,---,0.00,VWS V14.01,2013-07-29 07:34:00,
2013-07-29 03:35:00,60.1,54.6,29.99,SSW,211,0.0,0.0,82,0.00,,---,0.00,VWS V14.01,2013-07-29 07:35:00,
2013-07-29 03:39:00,59.8,54.3,29.99,SSW,211,0.0,0.0,82,0.00,,---,0.00,VWS V14.01,2013-07-29 07:39:00,
2013-07-29 03:40:00,59.8,54.3,29.99,SSW,211,0.0,0.0,82,0.00,,---,0.00,VWS V14.01,2013-07-29 07:40:00,
2013-07-29 03:44:00,59.6,54.4,29.99,SSW,211,0.0,0.0,83,0.00,,---,0.00,VWS V14.01,2013-07-29 07:44:00,
2013-07-29 03:45:00,59.6,54.4,29.99,SSW,211,0.0,0.0,83,0.00,,---,0.00,VWS V14.01,2013-07-29 07:45:00,
2013-07-29 03:49:00,59.3,54.2,29.99,SSW,211,0.0,0.0,83,0.00,,---,0.00,VWS V14.01,2013-07-29 07:49:00,
2013-07-29 03:50:00,59.3,54.2,29.99,SSW,211,0.0,0.0,83,0.00,,---,0.00,VWS V14.01,2013-07-29 07:50:00,
2013-07-29 03:54:00,59.2,54.0,29.99,SW,227,1.0,2.0,83,0.00,,---,0.00,VWS V14.01,2013-07-29 07:54:00,
2013-07-29 03:55:00,59.2,54.0,29.99,SW,227,0.0,0.0,83,0.00,,---,0.00,VWS V14.01,2013-07-29 07:55:00,
2013-07-29 03:59:00,59.0,54.2,29.99,WSW,237,0.0,0.0,84,0.00,,---,0.00,VWS V14.01,2013-07-29 07:59:00,
2013-07-29 04:00:00,59.0,54.2,29.99,WSW,237,0.0,0.0,84,0.00,,---,0.00,VWS V14.01,2013-07-29 08:00:00,
2013-07-29 04:04:00,58.9,54.4,29.99,WSW,237,0.0,0.0,85,0.00,,---,0.00,VWS V14.01,2013-07-29 08:04:00,
2013-07-29 04:05:00,58.9,54.4,29.99,WSW,237,0.0,0.0,85,0.00,,---,0.00,VWS V14.01,2013-07-29 08:05:00,
2013-07-29 04:09:00,58.7,54.2,29.99,WSW,237,0.0,0.0,85,0.00,,---,0.00,VWS V14.01,2013-07-29 08:09:00,
2013-07-29 04:10:00,58.7,54.2,29.99,WSW,237,0.0,0.0,85,0.00,,---,0.00,VWS V14.01,2013-07-29 08:10:00,
2013-07-29 04:14:00,58.7,54.2,29.99,WSW,237,1.0,1.0,85,0.00,,---,0.00,VWS V14.01,2013-07-29 08:14:00,
2013-07-29 04:15:00,58.7,54.2,29.99,WSW,237,2.0,3.0,85,0.00,,---,0.00,VWS V14.01,2013-07-29 08:15:00,
2013-07-29 04:19:00,58.6,54.1,29.99,WSW,237,0.0,0.0,85,0.00,,---,0.00,VWS V14.01,2013-07-29 08:19:00,
2013-07-29 04:20:00,58.6,54.1,29.99,WSW,237,0.0,0.0,85,0.00,,---,0.00,VWS V14.01,2013-07-29 08:20:00,
2013-07-29 04:24:00,58.4,54.2,29.99,WSW,237,0.0,0.0,86,0.00,,---,0.00,VWS V14.01,2013-07-29 08:24:00,
2013-07-29 04:25:00,58.4,54.2,29.99,WSW,237,0.0,0.0,86,0.00,,---,0.00,VWS V14.01,2013-07-29 08:25:00,
2013-07-29 04:29:00,58.3,54.1,29.99,WSW,237,0.0,0.0,86,0.00,,---,0.00,VWS V14.01,2013-07-29 08:29:00,
2013-07-29 04:30:00,58.3,54.1,29.99,WSW,237,0.0,0.0,86,0.00,,---,0.00,VWS V14.01,2013-07-29 08:30:00,
2013-07-29 04:34:00,58.1,53.9,29.99,WSW,238,0.0,0.0,86,0.00,,---,0.00,VWS V14.01,2013-07-29 08:34:00,
2013-07-29 04:35:00,58.1,53.9,29.99,WSW,237,0.0,0.0,86,0.00,,---,0.00,VWS V14.01,2013-07-29 08:35:00,
2013-07-29 04:39:00,58.0,53.8,29.99,WSW,237,0.0,0.0,86,0.00,,---,0.00,VWS V14.01,2013-07-29 08:39:00,
2013-07-29 04:40:00,58.0,53.8,29.99,WSW,237,0.0,0.0,86,0.00,,---,0.00,VWS V14.01,2013-07-29 08:40:00,
2013-07-29 04:44:00,57.8,53.7,29.99,WSW,237,0.0,0.0,86,0.00,,---,0.00,VWS V14.01,2013-07-29 08:44:00,
2013-07-29 04:45:00,57.8,53.7,29.99,WSW,237,0.0,0.0,86,0.00,,---,0.00,VWS V14.01,2013-07-29 08:45:00,
2013-07-29 04:46:00,57.8,53.7,29.99,WSW,237,0.0,0.0,86,0.00,,---,0.00,VWS V14.01,2013-07-29 08:46:00,
2013-07-29 04:50:00,57.6,53.5,30.00,WSW,237,0.0,0.0,86,0.00,,---,0.00,VWS V14.01,2013-07-29 08:50:00,
2013-07-29 04:51:00,57.6,53.5,30.00,WSW,237,0.0,0.0,86,0.00,,---,0.00,VWS V14.01,2013-07-29 08:51:00,
2013-07-29 04:55:00,57.6,53.5,30.00,WSW,237,0.0,0.0,86,0.00,,---,0.00,VWS V14.01,2013-07-29 08:55:00,
2013-07-29 04:56:00,57.5,53.3,30.00,WSW,237,0.0,0.0,86,0.00,,---,0.00,VWS V14.01,2013-07-29 08:56:00,
2013-07-29 05:00:00,57.5,53.3,30.00,WSW,237,0.0,2.0,86,0.00,,---,0.00,VWS V14.01,2013-07-29 09:00:00,
2013-07-29 05:01:00,57.5,53.3,30.00,WSW,237,0.0,0.0,86,0.00,,---,0.00,VWS V14.01,2013-07-29 09:01:00,
2013-07-29 05:05:00,57.3,53.2,30.00,WSW,237,0.0,1.0,86,0.00,,---,0.00,VWS V14.01,2013-07-29 09:05:00,
2013-07-29 05:06:00,57.3,53.2,30.00,WSW,237,2.0,2.0,86,0.00,,---,0.00,VWS V14.01,2013-07-29 09:06:00,
2013-07-29 05:10:00,57.2,53.4,30.00,WNW,291,0.0,0.0,87,0.00,,---,0.00,VWS V14.01,2013-07-29 09:10:00,
2013-07-29 05:11:00,57.2,53.4,30.00,WNW,291,0.0,2.0,87,0.00,,---,0.00,VWS V14.01,2013-07-29 09:11:00,
2013-07-29 05:15:00,57.0,53.2,30.00,West,262,0.0,2.0,87,0.00,,---,0.00,VWS V14.01,2013-07-29 09:15:00,
2013-07-29 05:16:00,57.0,53.2,30.00,West,262,1.0,1.0,87,0.00,,---,0.00,VWS V14.01,2013-07-29 09:16:00,
2013-07-29 05:17:00,57.0,53.2,30.00,West,262,0.0,1.0,87,0.00,,---,0.00,VWS V14.01,2013-07-29 09:17:00,
2013-07-29 05:20:00,57.0,53.2,30.00,West,262,0.0,0.0,87,0.00,,---,0.00,VWS V14.01,2013-07-29 09:20:00,
2013-07-29 05:21:00,57.0,53.2,30.00,West,262,0.0,0.0,87,0.00,,---,0.00,VWS V14.01,2013-07-29 09:21:00,
2013-07-29 05:22:00,57.0,53.2,30.00,West,262,0.0,0.0,87,0.00,,---,0.00,VWS V14.01,2013-07-29 09:22:00,
2013-07-29 05:25:00,56.9,53.1,30.00,West,262,0.0,0.0,87,0.00,,---,0.00,VWS V14.01,2013-07-29 09:25:00,
2013-07-29 05:27:00,56.9,53.1,30.00,WSW,257,0.0,2.0,87,0.00,,---,0.00,VWS V14.01,2013-07-29 09:27:00,
2013-07-29 05:30:00,56.7,53.2,30.00,WSW,257,0.0,0.0,88,0.00,,---,0.00,VWS V14.01,2013-07-29 09:30:00,
2013-07-29 05:31:00,56.7,53.2,30.00,WSW,257,0.0,0.0,88,0.00,,---,0.00,VWS V14.01,2013-07-29 09:31:00,
2013-07-29 05:32:00,56.7,53.2,30.00,WSW,257,0.0,0.0,88,0.00,,---,0.00,VWS V14.01,2013-07-29 09:32:00,
2013-07-29 05:35:00,56.7,53.2,30.01,WSW,257,0.0,0.0,88,0.00,,---,0.00,VWS V14.01,2013-07-29 09:35:00,
2013-07-29 05:36:00,56.7,53.2,30.01,WSW,257,0.0,0.0,88,0.00,,---,0.00,VWS V14.01,2013-07-29 09:36:00,
2013-07-29 05:37:00,56.6,53.1,30.01,WSW,257,0.0,0.0,88,0.00,,---,0.00,VWS V14.01,2013-07-29 09:37:00,
2013-07-29 05:40:00,56.6,53.1,30.01,WSW,257,0.0,0.0,88,0.00,,---,0.00,VWS V14.01,2013-07-29 09:40:00,
2013-07-29 05:41:00,56.6,53.1,30.01,WSW,257,0.0,0.0,88,0.00,,---,0.00,VWS V14.01,2013-07-29 09:41:00,
2013-07-29 05:42:00,56.6,53.1,30.01,WSW,257,0.0,0.0,88,0.00,,---,0.00,VWS V14.01,2013-07-29 09:42:00,
2013-07-29 05:45:00,56.5,53.0,30.01,WSW,257,0.0,0.0,88,0.00,,---,0.00,VWS V14.01,2013-07-29 09:45:00,
2013-07-29 05:46:00,56.5,53.0,30.01,WSW,257,0.0,0.0,88,0.00,,---,0.00,VWS V14.01,2013-07-29 09:46:00,
2013-07-29 05:47:00,56.5,53.3,30.01,WSW,257,0.0,0.0,89,0.00,,---,0.00,VWS V14.01,2013-07-29 09:47:00,
2013-07-29 05:50:00,56.3,53.1,30.01,WSW,257,0.0,0.0,89,0.00,,---,0.00,VWS V14.01,2013-07-29 09:50:00,
2013-07-29 05:51:00,56.3,52.8,30.01,WSW,257,0.0,0.0,88,0.00,,---,0.00,VWS V14.01,2013-07-29 09:51:00,
2013-07-29 05:52:00,56.3,52.8,30.01,WSW,257,0.0,0.0,88,0.00,,---,0.00,VWS V14.01,2013-07-29 09:52:00,
2013-07-29 05:55:00,56.2,52.7,30.01,WSW,257,0.0,0.0,88,0.00,,---,0.00,VWS V14.01,2013-07-29 09:55:00,
2013-07-29 05:56:00,56.2,52.7,30.01,WSW,257,0.0,0.0,88,0.00,,---,0.00,VWS V14.01,2013-07-29 09:56:00,
2013-07-29 05:57:00,56.2,52.7,30.01,WSW,257,0.0,0.0,88,0.00,,---,0.00,VWS V14.01,2013-07-29 09:57:00,
2013-07-29 06:01:00,56.0,52.5,30.01,WSW,257,0.0,0.0,88,0.00,,---,0.00,VWS V14.01,2013-07-29 10:01:00,
2013-07-29 06:02:00,55.9,52.4,30.02,WSW,257,0.0,0.0,88,0.00,,---,0.00,VWS V14.01,2013-07-29 10:02:00,
2013-07-29 06:03:00,55.9,52.4,30.02,WSW,257,0.0,0.0,88,0.00,,---,0.00,VWS V14.01,2013-07-29 10:03:00,
2013-07-29 06:06:00,55.7,52.2,30.02,WSW,257,0.0,0.0,88,0.00,,---,0.00,VWS V14.01,2013-07-29 10:06:00,
2013-07-29 06:08:00,55.7,52.2,30.02,WSW,257,0.0,0.0,88,0.00,,---,0.00,VWS V14.01,2013-07-29 10:08:00,
2013-07-29 06:09:00,55.7,52.2,30.02,WSW,257,0.0,0.0,88,0.00,,---,0.00,VWS V14.01,2013-07-29 10:09:00,
2013-07-29 06:11:00,55.6,52.1,30.02,WSW,257,0.0,0.0,88,0.00,,---,0.00,VWS V14.01,2013-07-29 10:11:00,
2013-07-29 06:14:00,55.4,51.9,30.02,WSW,257,0.0,0.0,88,0.00,,---,0.00,VWS V14.01,2013-07-29 10:14:00,
2013-07-29 06:16:00,55.4,51.9,30.02,WSW,257,0.0,0.0,88,0.00,,---,0.00,VWS V14.01,2013-07-29 10:16:00,
2013-07-29 06:17:00,55.3,51.8,30.02,WSW,257,0.0,0.0,88,0.00,,---,0.00,VWS V14.01,2013-07-29 10:17:00,
2013-07-29 06:19:00,55.3,51.8,30.03,WSW,257,0.0,0.0,88,0.00,,---,0.00,VWS V14.01,2013-07-29 10:19:00,
2013-07-29 06:21:00,55.3,51.8,30.03,WSW,257,0.0,0.0,88,0.00,,---,0.00,VWS V14.01,2013-07-29 10:21:00,
2013-07-29 06:22:00,55.1,51.6,30.03,WSW,257,0.0,0.0,88,0.00,,---,0.00,VWS V14.01,2013-07-29 10:22:00,
2013-07-29 06:24:00,55.1,51.6,30.03,WSW,257,0.0,0.0,88,0.00,,---,0.00,VWS V14.01,2013-07-29 10:24:00,
2013-07-29 06:26:00,55.1,51.6,30.03,WSW,257,0.0,0.0,88,0.00,,---,0.00,VWS V14.01,2013-07-29 10:26:00,
2013-07-29 06:27:00,55.1,51.6,30.03,WSW,257,0.0,0.0,88,0.00,,---,0.00,VWS V14.01,2013-07-29 10:27:00,
2013-07-29 06:29:00,55.0,51.5,30.03,WSW,257,0.0,0.0,88,0.00,,---,0.00,VWS V14.01,2013-07-29 10:29:00,
2013-07-29 06:31:00,55.0,51.5,30.03,WSW,257,0.0,0.0,88,0.00,,---,0.00,VWS V14.01,2013-07-29 10:31:00,
2013-07-29 06:33:00,55.0,51.8,30.03,WSW,257,0.0,0.0,89,0.00,,---,0.00,VWS V14.01,2013-07-29 10:33:00,
2013-07-29 06:34:00,55.0,51.8,30.03,WSW,257,0.0,0.0,89,0.00,,---,0.00,VWS V14.01,2013-07-29 10:34:00,
2013-07-29 06:35:00,55.0,51.8,30.03,WSW,257,0.0,0.0,89,0.00,,---,0.00,VWS V14.01,2013-07-29 10:35:00,
2013-07-29 06:37:00,55.0,51.8,30.03,WSW,257,0.0,0.0,89,0.00,,---,0.00,VWS V14.01,2013-07-29 10:37:00,
2013-07-29 06:38:00,55.1,52.2,30.03,WSW,257,0.0,0.0,90,0.00,,---,0.00,VWS V14.01,2013-07-29 10:38:00,
2013-07-29 06:40:00,55.1,52.2,30.03,WSW,257,0.0,0.0,90,0.00,,---,0.00,VWS V14.01,2013-07-29 10:40:00,
2013-07-29 06:42:00,55.3,52.7,30.03,WSW,257,0.0,0.0,91,0.00,,---,0.00,VWS V14.01,2013-07-29 10:42:00,
2013-07-29 06:44:00,55.4,53.1,30.03,WSW,257,0.0,0.0,92,0.00,,---,0.00,VWS V14.01,2013-07-29 10:44:00,
2013-07-29 06:45:00,55.6,53.3,30.03,WSW,257,0.0,0.0,92,0.00,,---,0.00,VWS V14.01,2013-07-29 10:45:00,
2013-07-29 06:47:00,55.7,53.4,30.03,WSW,257,0.0,0.0,92,0.00,,---,0.00,VWS V14.01,2013-07-29 10:47:00,
2013-07-29 06:49:00,56.0,54.0,30.03,WSW,257,0.0,0.0,93,0.00,,---,0.00,VWS V14.01,2013-07-29 10:49:00,
2013-07-29 06:50:00,56.2,54.2,30.03,WSW,257,0.0,0.0,93,0.00,,---,0.00,VWS V14.01,2013-07-29 10:50:00,
2013-07-29 06:52:00,56.3,54.3,30.03,WSW,257,0.0,0.0,93,0.00,,---,0.00,VWS V14.01,2013-07-29 10:52:00,
2013-07-29 06:53:00,56.3,54.3,30.03,WSW,257,0.0,0.0,93,0.00,,---,0.00,VWS V14.01,2013-07-29 10:53:00,
2013-07-29 06:54:00,56.5,54.8,30.03,WSW,257,0.0,0.0,94,0.00,,---,0.00,VWS V14.01,2013-07-29 10:54:00,
2013-07-29 06:55:00,56.6,54.9,30.03,WSW,257,0.0,0.0,94,0.00,,---,0.00,VWS V14.01,2013-07-29 10:55:00,
2013-07-29 06:57:00,56.9,55.2,30.03,WSW,257,0.0,0.0,94,0.00,,---,0.00,VWS V14.01,2013-07-29 10:57:00,
2013-07-29 06:58:00,56.9,55.2,30.03,WSW,257,0.0,0.0,94,0.00,,---,0.00,VWS V14.01,2013-07-29 10:58:00,
2013-07-29 07:00:00,57.0,55.3,30.03,WSW,257,0.0,0.0,94,0.00,,---,0.00,VWS V14.01,2013-07-29 11:00:00,
2013-07-29 07:02:00,57.5,56.1,30.04,WSW,257,0.0,0.0,95,0.00,,---,0.00,VWS V14.01,2013-07-29 11:02:00,
2013-07-29 07:03:00,57.5,56.1,30.04,WSW,257,0.0,0.0,95,0.00,,---,0.00,VWS V14.01,2013-07-29 11:03:00,
2013-07-29 07:05:00,57.6,56.2,30.04,WSW,257,0.0,0.0,95,0.00,,---,0.00,VWS V14.01,2013-07-29 11:05:00,
2013-07-29 07:08:00,58.0,56.6,30.04,WSW,257,0.0,0.0,95,0.00,,---,0.00,VWS V14.01,2013-07-29 11:08:00,
2013-07-29 07:10:00,58.3,56.9,30.04,WSW,257,0.0,0.0,95,0.00,,---,0.00,VWS V14.01,2013-07-29 11:10:00,
2013-07-29 07:13:00,58.4,57.0,30.04,WSW,257,0.0,0.0,95,0.00,,---,0.00,VWS V14.01,2013-07-29 11:13:00,
2013-07-29 07:15:00,58.6,57.2,30.04,WSW,257,0.0,0.0,95,0.00,,---,0.00,VWS V14.01,2013-07-29 11:15:00,
2013-07-29 07:18:00,58.9,57.5,30.04,WSW,257,0.0,0.0,95,0.00,,---,0.00,VWS V14.01,2013-07-29 11:18:00,
2013-07-29 07:19:00,58.9,57.5,30.04,WSW,257,0.0,0.0,95,0.00,,---,0.00,VWS V14.01,2013-07-29 11:19:00,
2013-07-29 07:20:00,59.0,57.6,30.04,WSW,257,0.0,0.0,95,0.00,,---,0.00,VWS V14.01,2013-07-29 11:20:00,
2013-07-29 07:23:00,59.3,57.9,30.04,WSW,257,0.0,0.0,95,0.00,,---,0.00,VWS V14.01,2013-07-29 11:23:00,
2013-07-29 07:24:00,59.5,58.1,30.04,WSW,257,0.0,0.0,95,0.00,,---,0.00,VWS V14.01,2013-07-29 11:24:00,
2013-07-29 07:25:00,59.6,58.2,30.04,WSW,257,0.0,0.0,95,0.00,,---,0.00,VWS V14.01,2013-07-29 11:25:00,
2013-07-29 07:28:00,59.9,58.5,30.04,WSW,257,0.0,0.0,95,0.00,,---,0.00,VWS V14.01,2013-07-29 11:28:00,
2013-07-29 07:29:00,59.9,58.5,30.04,WSW,257,0.0,0.0,95,0.00,,---,0.00,VWS V14.01,2013-07-29 11:29:00,
2013-07-29 07:30:00,60.1,58.7,30.04,WSW,257,0.0,0.0,95,0.00,,---,0.00,VWS V14.01,2013-07-29 11:30:00,
2013-07-29 07:31:00,60.2,58.8,30.04,WSW,257,0.0,0.0,95,0.00,,---,0.00,VWS V14.01,2013-07-29 11:31:00,
2013-07-29 07:33:00,60.5,59.1,30.04,WSW,257,0.0,0.0,95,0.00,,---,0.00,VWS V14.01,2013-07-29 11:33:00,
2013-07-29 07:34:00,60.5,59.1,30.04,WSW,257,0.0,0.0,95,0.00,,---,0.00,VWS V14.01,2013-07-29 11:34:00,
2013-07-29 07:35:00,60.7,59.3,30.04,WSW,257,0.0,0.0,95,0.00,,---,0.00,VWS V14.01,2013-07-29 11:35:00,
2013-07-29 07:37:00,61.0,59.6,30.04,WSW,257,0.0,0.0,95,0.00,,---,0.00,VWS V14.01,2013-07-29 11:37:00,
2013-07-29 07:38:00,61.3,59.9,30.04,WSW,257,0.0,0.0,95,0.00,,---,0.00,VWS V14.01,2013-07-29 11:38:00,
2013-07-29 07:39:00,61.5,60.1,30.04,WSW,257,0.0,0.0,95,0.00,,---,0.00,VWS V14.01,2013-07-29 11:39:00,
2013-07-29 07:40:00,61.6,60.2,30.04,WSW,257,0.0,0.0,95,0.00,,---,0.00,VWS V14.01,2013-07-29 11:40:00,
2013-07-29 07:43:00,62.0,60.6,30.04,WSW,257,0.0,0.0,95,0.00,,---,0.00,VWS V14.01,2013-07-29 11:43:00,
2013-07-29 07:44:00,62.1,60.7,30.04,WSW,257,0.0,0.0,95,0.00,,---,0.00,VWS V14.01,2013-07-29 11:44:00,
2013-07-29 07:46:00,62.4,60.7,30.04,WSW,257,0.0,0.0,94,0.00,,---,0.00,VWS V14.01,2013-07-29 11:46:00,
2013-07-29 07:48:00,62.7,60.7,30.04,WSW,257,0.0,0.0,93,0.00,,---,0.00,VWS V14.01,2013-07-29 11:48:00,
2013-07-29 07:49:00,62.9,60.8,30.04,WSW,257,0.0,0.0,93,0.00,,---,0.00,VWS V14.01,2013-07-29 11:49:00,
2013-07-29 07:50:00,63.2,60.8,30.04,WSW,257,0.0,0.0,92,0.00,,---,0.00,VWS V14.01,2013-07-29 11:50:00,
2013-07-29 07:52:00,63.4,60.4,30.04,WSW,257,0.0,0.0,90,0.00,,---,0.00,VWS V14.01,2013-07-29 11:52:00,
2013-07-29 07:53:00,63.5,60.5,30.04,WSW,257,0.0,0.0,90,0.00,,---,0.00,VWS V14.01,2013-07-29 11:53:00,
2013-07-29 07:54:00,63.7,60.4,30.04,WSW,257,0.0,0.0,89,0.00,,---,0.00,VWS V14.01,2013-07-29 11:54:00,
2013-07-29 07:55:00,63.9,60.3,30.04,WSW,257,0.0,0.0,88,0.00,,---,0.00,VWS V14.01,2013-07-29 11:55:00,
2013-07-29 07:57:00,64.0,60.1,30.04,WSW,257,0.0,0.0,87,0.00,,---,0.00,VWS V14.01,2013-07-29 11:57:00,
2013-07-29 07:58:00,64.2,59.9,30.04,WSW,257,0.0,0.0,86,0.00,,---,0.00,VWS V14.01,2013-07-29 11:58:00,
2013-07-29 07:59:00,64.5,59.9,30.04,WSW,257,0.0,0.0,85,0.00,,---,0.00,VWS V14.01,2013-07-29 11:59:00,
2013-07-29 08:00:00,64.5,59.9,30.04,WSW,257,0.0,0.0,85,0.00,,---,0.00,VWS V14.01,2013-07-29 12:00:00,
2013-07-29 08:03:00,65.3,60.7,30.04,WSW,257,0.0,1.0,85,0.00,,---,0.00,VWS V14.01,2013-07-29 12:03:00,
2013-07-29 08:04:00,65.3,60.0,30.04,WSW,257,0.0,1.0,83,0.00,,---,0.00,VWS V14.01,2013-07-29 12:04:00,
2013-07-29 08:05:00,65.5,59.2,30.04,WSW,257,0.0,0.0,80,0.00,,---,0.00,VWS V14.01,2013-07-29 12:05:00,
2013-07-29 08:08:00,66.1,59.8,30.04,WSW,257,0.0,0.0,80,0.00,,---,0.00,VWS V14.01,2013-07-29 12:08:00,
2013-07-29 08:09:00,66.3,59.6,30.04,WSW,257,0.0,0.0,79,0.00,,---,0.00,VWS V14.01,2013-07-29 12:09:00,
2013-07-29 08:10:00,66.4,59.7,30.04,WSW,257,0.0,0.0,79,0.00,,---,0.00,VWS V14.01,2013-07-29 12:10:00,
2013-07-29 08:13:00,66.9,58.7,30.04,WSW,257,0.0,0.0,75,0.00,,---,0.00,VWS V14.01,2013-07-29 12:13:00,
2013-07-29 08:14:00,67.1,58.5,30.04,WSW,257,0.0,0.0,74,0.00,,---,0.00,VWS V14.01,2013-07-29 12:14:00,
2013-07-29 08:15:00,67.4,59.2,30.04,WSW,257,0.0,0.0,75,0.00,,---,0.00,VWS V14.01,2013-07-29 12:15:00,
2013-07-29 08:18:00,67.8,58.1,30.04,WSW,257,1.0,1.0,71,0.00,,---,0.00,VWS V14.01,2013-07-29 12:18:00,
2013-07-29 08:19:00,68.1,58.0,30.04,WSW,257,0.0,0.0,70,0.00,,---,0.00,VWS V14.01,2013-07-29 12:19:00,
2013-07-29 08:20:00,68.1,58.0,30.04,WSW,257,0.0,0.0,70,0.00,,---,0.00,VWS V14.01,2013-07-29 12:20:00,
2013-07-29 08:23:00,68.8,59.4,30.04,WSW,257,0.0,0.0,72,0.00,,---,0.00,VWS V14.01,2013-07-29 12:23:00,
2013-07-29 08:25:00,68.8,58.2,30.04,WSW,257,0.0,0.0,69,0.00,,---,0.00,VWS V14.01,2013-07-29 12:25:00,
2013-07-29 08:26:00,68.9,57.9,30.04,WSW,257,0.0,0.0,68,0.00,,---,0.00,VWS V14.01,2013-07-29 12:26:00,
2013-07-29 08:29:00,69.3,58.3,30.04,WSW,257,0.0,0.0,68,0.00,,---,0.00,VWS V14.01,2013-07-29 12:29:00,
2013-07-29 08:30:00,69.4,58.4,30.04,WSW,257,0.0,0.0,68,0.00,,---,0.00,VWS V14.01,2013-07-29 12:30:00,
2013-07-29 08:31:00,69.4,58.0,30.04,WSW,257,0.0,0.0,67,0.00,,---,0.00,VWS V14.01,2013-07-29 12:31:00,
2013-07-29 08:34:00,69.8,57.9,30.05,WSW,257,0.0,0.0,66,0.00,,---,0.00,VWS V14.01,2013-07-29 12:34:00,
2013-07-29 08:35:00,69.9,58.0,30.05,West,259,0.0,0.0,66,0.00,,---,0.00,VWS V14.01,2013-07-29 12:35:00,
2013-07-29 08:36:00,69.9,57.6,30.05,WNW,288,0.0,1.0,65,0.00,,---,0.00,VWS V14.01,2013-07-29 12:36:00,
2013-07-29 08:39:00,70.1,56.9,30.05,WNW,303,2.0,2.0,63,0.00,,---,0.00,VWS V14.01,2013-07-29 12:39:00,
2013-07-29 08:41:00,70.3,57.1,30.05,WNW,303,0.0,1.0,63,0.00,,---,0.00,VWS V14.01,2013-07-29 12:41:00,
2013-07-29 08:44:00,70.4,57.2,30.05,NW,304,0.0,0.0,63,0.00,,---,0.00,VWS V14.01,2013-07-29 12:44:00,
2013-07-29 08:46:00,70.4,58.1,30.05,NW,304,0.0,0.0,65,0.00,,---,0.00,VWS V14.01,2013-07-29 12:46:00,
2013-07-29 08:47:00,70.4,58.1,30.05,NW,304,0.0,0.0,65,0.00,,---,0.00,VWS V14.01,2013-07-29 12:47:00,
2013-07-29 08:49:00,70.6,57.4,30.05,NW,304,0.0,0.0,63,0.00,,---,0.00,VWS V14.01,2013-07-29 12:49:00,
2013-07-29 08:52:00,70.8,58.0,30.05,WNW,302,0.0,0.0,64,0.00,,---,0.00,VWS V14.01,2013-07-29 12:52:00,
2013-07-29 08:54:00,70.9,58.1,30.05,WNW,300,0.0,4.0,64,0.00,,---,0.00,VWS V14.01,2013-07-29 12:54:00,
2013-07-29 08:57:00,70.9,57.7,30.05,North,360,1.0,2.0,63,0.00,,---,0.00,VWS V14.01,2013-07-29 12:57:00,
2013-07-29 09:00:00,71.1,57.0,30.05,North,5,0.0,0.0,61,0.00,,---,0.00,VWS V14.01,2013-07-29 13:00:00,
2013-07-29 09:02:00,71.1,56.5,30.06,West,262,3.0,3.0,60,0.00,,---,0.00,VWS V14.01,2013-07-29 13:02:00,
2013-07-29 09:05:00,71.3,57.2,30.06,WSW,248,0.0,3.0,61,0.00,,---,0.00,VWS V14.01,2013-07-29 13:05:00,
2013-07-29 09:07:00,71.5,57.4,30.06,West,281,1.0,1.0,61,0.00,,---,0.00,VWS V14.01,2013-07-29 13:07:00,
2013-07-29 09:08:00,71.5,56.4,30.06,WNW,294,1.0,2.0,59,0.00,,---,0.00,VWS V14.01,2013-07-29 13:08:00,
2013-07-29 09:10:00,71.6,56.1,30.06,WNW,295,0.0,0.0,58,0.00,,---,0.00,VWS V14.01,2013-07-29 13:10:00,
2013-07-29 09:12:00,71.8,57.6,30.06,WNW,297,5.0,5.0,61,0.00,,---,0.00,VWS V14.01,2013-07-29 13:12:00,
2013-07-29 09:13:00,72.0,57.8,30.06,NNW,336,0.0,1.0,61,0.00,,---,0.00,VWS V14.01,2013-07-29 13:13:00,
2013-07-29 09:14:00,72.0,57.8,30.06,NW,308,7.0,7.0,61,0.00,,---,0.00,VWS V14.01,2013-07-29 13:14:00,
2013-07-29 09:15:00,72.0,56.9,30.06,WNW,289,0.0,4.0,59,0.00,,---,0.00,VWS V14.01,2013-07-29 13:15:00,
2013-07-29 09:17:00,72.1,55.6,30.06,WNW,298,0.0,0.0,56,0.00,,---,0.00,VWS V14.01,2013-07-29 13:17:00,
2013-07-29 09:18:00,72.1,57.5,30.06,NW,305,0.0,3.0,60,0.00,,---,0.00,VWS V14.01,2013-07-29 13:18:00,
2013-07-29 09:19:00,72.1,57.5,30.06,NW,305,0.0,0.0,60,0.00,,---,0.00,VWS V14.01,2013-07-29 13:19:00,
2013-07-29 09:20:00,72.1,56.0,30.06,NW,305,0.0,0.0,57,0.00,,---,0.00,VWS V14.01,2013-07-29 13:20:00,
2013-07-29 09:22:00,72.3,56.7,30.06,West,271,3.0,3.0,58,0.00,,---,0.00,VWS V14.01,2013-07-29 13:22:00,
2013-07-29 09:23:00,72.5,58.3,30.06,West,272,0.0,2.0,61,0.00,,---,0.00,VWS V14.01,2013-07-29 13:23:00,
2013-07-29 09:24:00,72.5,58.3,30.06,West,279,3.0,5.0,61,0.00,,---,0.00,VWS V14.01,2013-07-29 13:24:00,
2013-07-29 09:25:00,72.7,57.6,30.06,North,349,3.0,6.0,59,0.00,,---,0.00,VWS V14.01,2013-07-29 13:25:00,
2013-07-29 09:27:00,72.7,56.6,30.06,WNW,299,0.0,2.0,57,0.00,,---,0.00,VWS V14.01,2013-07-29 13:27:00,
2013-07-29 09:29:00,72.8,58.6,30.06,WNW,299,0.0,0.0,61,0.00,,---,0.00,VWS V14.01,2013-07-29 13:29:00,
2013-07-29 09:32:00,73.0,55.9,30.06,SW,223,3.0,10.0,55,0.00,,---,0.00,VWS V14.01,2013-07-29 13:32:00,
2013-07-29 09:33:00,73.0,56.4,30.06,SW,235,5.0,5.0,56,0.00,,---,0.00,VWS V14.01,2013-07-29 13:33:00,
2013-07-29 09:34:00,73.0,57.4,30.06,West,273,3.0,4.0,58,0.00,,---,0.00,VWS V14.01,2013-07-29 13:34:00,
2013-07-29 09:35:00,73.2,58.5,30.06,West,274,2.0,4.0,60,0.00,,---,0.00,VWS V14.01,2013-07-29 13:35:00,
2013-07-29 09:37:00,73.3,57.7,30.06,WNW,294,0.0,4.0,58,0.00,,---,0.00,VWS V14.01,2013-07-29 13:37:00,
2013-07-29 09:38:00,73.3,56.7,30.06,WNW,294,0.0,0.0,56,0.00,,---,0.00,VWS V14.01,2013-07-29 13:38:00,
2013-07-29 09:39:00,73.3,57.7,30.06,WNW,293,1.0,5.0,58,0.00,,---,0.00,VWS V14.01,2013-07-29 13:39:00,
2013-07-29 09:40:00,73.3,56.2,30.06,WNW,293,1.0,5.0,55,0.00,,---,0.00,VWS V14.01,2013-07-29 13:40:00,
2013-07-29 09:42:00,73.5,56.9,30.06,WNW,294,0.0,0.0,56,0.00,,---,0.00,VWS V14.01,2013-07-29 13:42:00,
2013-07-29 09:43:00,73.7,58.5,30.06,West,269,5.0,5.0,59,0.00,,---,0.00,VWS V14.01,2013-07-29 13:43:00,
2013-07-29 09:44:00,73.7,57.5,30.06,West,271,2.0,3.0,57,0.00,,---,0.00,VWS V14.01,2013-07-29 13:44:00,
2013-07-29 09:45:00,73.7,58.5,30.06,West,271,0.0,3.0,59,0.00,,---,0.00,VWS V14.01,2013-07-29 13:45:00,
2013-07-29 09:47:00,73.9,56.7,30.06,WNW,292,3.0,3.0,55,0.00,,---,0.00,VWS V14.01,2013-07-29 13:47:00,
2013-07-29 09:48:00,73.9,56.7,30.06,WNW,301,0.0,0.0,55,0.00,,---,0.00,VWS V14.01,2013-07-29 13:48:00,
2013-07-29 09:49:00,73.9,56.7,30.06,WNW,300,2.0,3.0,55,0.00,,---,0.00,VWS V14.01,2013-07-29 13:49:00,
2013-07-29 09:51:00,74.0,56.8,30.06,North,5,1.0,3.0,55,0.00,,---,0.00,VWS V14.01,2013-07-29 13:51:00,
2013-07-29 09:53:00,74.0,56.8,30.06,SW,214,0.0,0.0,55,0.00,,---,0.00,VWS V14.01,2013-07-29 13:53:00,
2013-07-29 09:54:00,74.0,56.3,30.06,WNW,288,3.0,5.0,54,0.00,,---,0.00,VWS V14.01,2013-07-29 13:54:00,
2013-07-29 09:56:00,74.2,56.0,30.06,NW,323,0.0,3.0,53,0.00,,---,0.00,VWS V14.01,2013-07-29 13:56:00,
2013-07-29 09:58:00,74.2,57.0,30.06,West,267,0.0,5.0,55,0.00,,---,0.00,VWS V14.01,2013-07-29 13:58:00,
2013-07-29 10:00:00,74.4,58.7,30.06,West,267,0.0,1.0,58,0.00,,---,0.00,VWS V14.01,2013-07-29 14:00:00,
2013-07-29 10:01:00,74.4,60.1,30.06,West,275,2.0,4.0,61,0.00,,---,0.00,VWS V14.01,2013-07-29 14:01:00,
2013-07-29 10:03:00,74.6,58.9,30.05,WSW,247,0.0,4.0,58,0.00,,---,0.00,VWS V14.01,2013-07-29 14:03:00,
2013-07-29 10:05:00,74.6,58.4,30.05,WNW,302,0.0,0.0,57,0.00,,---,0.00,VWS V14.01,2013-07-29 14:05:00,
2013-07-29 10:06:00,74.6,56.9,30.05,WNW,290,0.0,6.0,54,0.00,,---,0.00,VWS V14.01,2013-07-29 14:06:00,
2013-07-29 10:09:00,74.7,56.5,30.05,NW,304,9.0,9.0,53,0.00,,---,0.00,VWS V14.01,2013-07-29 14:09:00,
2013-07-29 10:10:00,74.7,55.4,30.05,WNW,290,0.0,2.0,51,0.00,,---,0.00,VWS V14.01,2013-07-29 14:10:00,
2013-07-29 10:11:00,74.7,56.5,30.05,WNW,291,0.0,1.0,53,0.00,,---,0.00,VWS V14.01,2013-07-29 14:11:00,
2013-07-29 10:14:00,74.7,55.9,30.05,NW,304,0.0,2.0,52,0.00,,---,0.00,VWS V14.01,2013-07-29 14:14:00,
2013-07-29 10:15:00,74.7,56.5,30.05,NW,315,5.0,5.0,53,0.00,,---,0.00,VWS V14.01,2013-07-29 14:15:00,
2013-07-29 10:17:00,74.6,55.8,30.05,WNW,289,0.0,1.0,52,0.00,,---,0.00,VWS V14.01,2013-07-29 14:17:00,
2013-07-29 10:20:00,74.6,56.9,30.06,NNW,336,0.0,1.0,54,0.00,,---,0.00,VWS V14.01,2013-07-29 14:20:00,
2013-07-29 10:21:00,74.6,56.4,30.06,North,355,3.0,5.0,53,0.00,,---,0.00,VWS V14.01,2013-07-29 14:21:00,
2013-07-29 10:22:00,74.6,55.8,30.06,NNW,329,0.0,4.0,52,0.00,,---,0.00,VWS V14.01,2013-07-29 14:22:00,
2013-07-29 10:26:00,74.4,55.1,30.06,NW,304,3.0,9.0,51,0.00,,---,0.00,VWS V14.01,2013-07-29 14:26:00,
2013-07-29 10:27:00,74.4,55.7,30.06,SW,229,11.0,11.0,52,0.00,,---,0.00,VWS V14.01,2013-07-29 14:27:00,
2013-07-29 10:31:00,74.4,57.7,30.06,SW,216,3.0,6.0,56,0.00,,---,0.00,VWS V14.01,2013-07-29 14:31:00,
2013-07-29 10:32:00,74.4,57.7,30.06,SW,216,0.0,6.0,56,0.00,,---,0.00,VWS V14.01,2013-07-29 14:32:00,
2013-07-29 10:33:00,74.4,56.7,30.06,NNE,12,2.0,5.0,54,0.00,,---,0.00,VWS V14.01,2013-07-29 14:33:00,
2013-07-29 10:36:00,74.2,57.0,30.06,NW,326,5.0,6.0,55,0.00,,---,0.00,VWS V14.01,2013-07-29 14:36:00,
2013-07-29 10:37:00,74.2,54.9,30.06,WNW,291,6.0,6.0,51,0.00,,---,0.00,VWS V14.01,2013-07-29 14:37:00,
2013-07-29 10:38:00,74.2,54.9,30.06,NW,311,1.0,1.0,51,0.00,,---,0.00,VWS V14.01,2013-07-29 14:38:00,
2013-07-29 10:42:00,74.2,57.0,30.06,WNW,284,0.0,0.0,55,0.00,,---,0.00,VWS V14.01,2013-07-29 14:42:00,
2013-07-29 10:43:00,74.2,58.5,30.06,West,259,0.0,3.0,58,0.00,,---,0.00,VWS V14.01,2013-07-29 14:43:00,
2013-07-29 10:47:00,74.2,57.0,30.06,WSW,242,2.0,5.0,55,0.00,,---,0.00,VWS V14.01,2013-07-29 14:47:00,
2013-07-29 10:48:00,74.4,57.2,30.06,NW,316,0.0,2.0,55,0.00,,---,0.00,VWS V14.01,2013-07-29 14:48:00,
2013-07-29 10:52:00,74.4,56.7,30.06,NW,306,5.0,7.0,54,0.00,,---,0.00,VWS V14.01,2013-07-29 14:52:00,
2013-07-29 10:53:00,74.4,55.7,30.06,NW,307,0.0,7.0,52,0.00,,---,0.00,VWS V14.01,2013-07-29 14:53:00,
2013-07-29 10:57:00,74.6,55.8,30.06,West,276,2.0,2.0,52,0.00,,---,0.00,VWS V14.01,2013-07-29 14:57:00,
2013-07-29 10:58:00,74.7,55.9,30.06,WSW,250,5.0,6.0,52,0.00,,---,0.00,VWS V14.01,2013-07-29 14:58:00,
2013-07-29 11:02:00,74.7,56.5,30.06,WNW,299,9.0,10.0,53,0.00,,---,0.00,VWS V14.01,2013-07-29 15:02:00,
2013-07-29 11:03:00,74.9,57.2,30.06,WNW,302,0.0,1.0,54,0.00,,---,0.00,VWS V14.01,2013-07-29 15:03:00,
2013-07-29 11:04:00,74.9,56.1,30.06,WNW,302,1.0,3.0,52,0.00,,---,0.00,VWS V14.01,2013-07-29 15:04:00,
2013-07-29 11:07:00,74.9,57.2,30.06,WNW,303,3.0,6.0,54,0.00,,---,0.00,VWS V14.01,2013-07-29 15:07:00,
2013-07-29 11:08:00,74.9,57.2,30.06,WSW,243,0.0,5.0,54,0.00,,---,0.00,VWS V14.01,2013-07-29 15:08:00,
2013-07-29 11:09:00,74.9,57.2,30.06,WNW,293,2.0,5.0,54,0.00,,---,0.00,VWS V14.01,2013-07-29 15:09:00,
2013-07-29 11:12:00,74.9,55.6,30.06,SW,231,4.0,4.0,51,0.00,,---,0.00,VWS V14.01,2013-07-29 15:12:00,
2013-07-29 11:14:00,75.1,55.2,30.06,SW,231,0.0,0.0,50,0.00,,---,0.00,VWS V14.01,2013-07-29 15:14:00,
2013-07-29 11:18:00,75.1,56.8,30.06,SSW,213,7.0,9.0,53,0.00,,---,0.00,VWS V14.01,2013-07-29 15:18:00,
2013-07-29 11:19:00,75.3,57.5,30.06,SW,219,1.0,10.0,54,0.00,,---,0.00,VWS V14.01,2013-07-29 15:19:00,
2013-07-29 11:20:00,75.3,58.0,30.06,SSE,167,0.0,11.0,55,0.00,,---,0.00,VWS V14.01,2013-07-29 15:20:00,
2013-07-29 11:23:00,75.4,58.6,30.06,SSW,207,0.0,4.0,56,0.00,,---,0.00,VWS V14.01,2013-07-29 15:23:00,
2013-07-29 11:24:00,75.6,58.3,30.06,SSW,207,1.0,1.0,55,0.00,,---,0.00,VWS V14.01,2013-07-29 15:24:00,
2013-07-29 11:25:00,75.6,56.8,30.06,SSW,207,0.0,2.0,52,0.00,,---,0.00,VWS V14.01,2013-07-29 15:25:00,
2013-07-29 11:29:00,75.4,54.4,30.06,NW,325,2.0,2.0,48,0.00,,---,0.00,VWS V14.01,2013-07-29 15:29:00,
2013-07-29 11:30:00,75.3,53.7,30.06,NNW,330,2.0,2.0,47,0.00,,---,0.00,VWS V14.01,2013-07-29 15:30:00,
2013-07-29 11:34:00,75.3,56.5,30.06,NW,307,3.0,3.0,52,0.00,,---,0.00,VWS V14.01,2013-07-29 15:34:00,
2013-07-29 11:35:00,75.3,57.0,30.06,NW,317,0.0,3.0,53,0.00,,---,0.00,VWS V14.01,2013-07-29 15:35:00,
2013-07-29 11:39:00,75.3,55.9,30.06,West,267,1.0,2.0,51,0.00,,---,0.00,VWS V14.01,2013-07-29 15:39:00,
2013-07-29 11:40:00,75.3,57.5,30.06,West,271,0.0,1.0,54,0.00,,---,0.00,VWS V14.01,2013-07-29 15:40:00,
2013-07-29 11:44:00,75.6,60.3,30.06,West,275,0.0,0.0,59,0.00,,---,0.00,VWS V14.01,2013-07-29 15:44:00,
2013-07-29 11:45:00,75.4,60.1,30.06,West,275,0.0,0.0,59,0.00,,---,0.00,VWS V14.01,2013-07-29 15:45:00,
2013-07-29 11:49:00,75.4,54.4,30.06,West,279,9.0,9.0,48,0.00,,---,0.00,VWS V14.01,2013-07-29 15:49:00,
2013-07-29 11:50:00,75.4,56.6,30.06,WNW,292,0.0,2.0,52,0.00,,---,0.00,VWS V14.01,2013-07-29 15:50:00,
2013-07-29 11:52:00,75.4,54.9,30.06,WNW,292,3.0,5.0,49,0.00,,---,0.00,VWS V14.01,2013-07-29 15:52:00,
2013-07-29 11:55:00,75.4,56.6,30.06,SSW,211,6.0,7.0,52,0.00,,---,0.00,VWS V14.01,2013-07-29 15:55:00,
2013-07-29 11:57:00,75.4,57.1,30.06,WNW,290,0.0,10.0,53,0.00,,---,0.00,VWS V14.01,2013-07-29 15:57:00,
2013-07-29 12:00:00,75.4,56.0,30.06,SW,221,1.0,4.0,51,0.00,,---,0.00,VWS V14.01,2013-07-29 16:00:00,
2013-07-29 12:02:00,75.4,55.5,30.06,WNW,302,0.0,0.0,50,0.00,,---,0.00,VWS V14.01,2013-07-29 16:02:00,
2013-07-29 12:05:00,75.6,56.8,30.06,West,262,0.0,0.0,52,0.00,,---,0.00,VWS V14.01,2013-07-29 16:05:00,
2013-07-29 12:06:00,75.6,56.8,30.06,West,260,3.0,5.0,52,0.00,,---,0.00,VWS V14.01,2013-07-29 16:06:00,
2013-07-29 12:07:00,75.6,55.1,30.06,West,270,1.0,6.0,49,0.00,,---,0.00,VWS V14.01,2013-07-29 16:07:00,
2013-07-29 12:10:00,75.8,54.7,30.06,West,269,0.0,6.0,48,0.00,,---,0.00,VWS V14.01,2013-07-29 16:10:00,
2013-07-29 12:11:00,75.8,54.7,30.06,NW,313,6.0,6.0,48,0.00,,---,0.00,VWS V14.01,2013-07-29 16:11:00,
2013-07-29 12:12:00,76.0,55.5,30.06,West,281,1.0,2.0,49,0.00,,---,0.00,VWS V14.01,2013-07-29 16:12:00,
2013-07-29 12:16:00,76.1,56.7,30.06,South,171,2.0,3.0,51,0.00,,---,0.00,VWS V14.01,2013-07-29 16:16:00,
2013-07-29 12:17:00,76.3,56.9,30.06,SW,226,5.0,9.0,51,0.00,,---,0.00,VWS V14.01,2013-07-29 16:17:00,
2013-07-29 12:18:00,76.3,55.2,30.06,SW,236,3.0,10.0,48,0.00,,---,0.00,VWS V14.01,2013-07-29 16:18:00,
2013-07-29 12:22:00,76.5,57.0,30.06,SW,216,7.0,13.0,51,0.00,,---,0.00,VWS V14.01,2013-07-29 16:22:00,
2013-07-29 12:23:00,76.7,56.1,30.06,SW,235,5.0,5.0,49,0.00,,---,0.00,VWS V14.01,2013-07-29 16:23:00,
2013-07-29 12:27:00,76.7,54.4,30.06,West,269,0.0,3.0,46,0.00,,---,0.00,VWS V14.01,2013-07-29 16:27:00,
2013-07-29 12:28:00,76.8,55.7,30.06,SSW,209,7.0,7.0,48,0.00,,---,0.00,VWS V14.01,2013-07-29 16:28:00,
2013-07-29 12:29:00,76.8,57.3,30.06,WSW,241,6.0,9.0,51,0.00,,---,0.00,VWS V14.01,2013-07-29 16:29:00,
2013-07-29 12:32:00,77.0,57.5,30.06,WSW,237,0.0,5.0,51,0.00,,---,0.00,VWS V14.01,2013-07-29 16:32:00,
2013-07-29 12:33:00,77.0,56.4,30.06,West,275,1.0,6.0,49,0.00,,---,0.00,VWS V14.01,2013-07-29 16:33:00,
2013-07-29 12:34:00,77.0,56.4,30.06,WNW,286,0.0,4.0,49,0.00,,---,0.00,VWS V14.01,2013-07-29 16:34:00,
2013-07-29 12:37:00,77.0,56.4,30.06,West,266,2.0,2.0,49,0.00,,---,0.00,VWS V14.01,2013-07-29 16:37:00,
2013-07-29 12:38:00,77.0,54.7,30.06,West,274,3.0,3.0,46,0.00,,---,0.00,VWS V14.01,2013-07-29 16:38:00,
2013-07-29 12:39:00,77.0,56.4,30.06,WNW,293,10.0,10.0,49,0.00,,---,0.00,VWS V14.01,2013-07-29 16:39:00,
2013-07-29 12:42:00,77.2,56.0,30.06,SW,214,5.0,5.0,48,0.00,,---,0.00,VWS V14.01,2013-07-29 16:42:00,
2013-07-29 12:43:00,77.2,54.8,30.06,SSW,213,4.0,4.0,46,0.00,,---,0.00,VWS V14.01,2013-07-29 16:43:00,
2013-07-29 12:44:00,77.2,54.2,30.06,SSW,213,0.0,4.0,45,0.00,,---,0.00,VWS V14.01,2013-07-29 16:44:00,
2013-07-29 12:47:00,77.6,56.4,30.06,SSW,200,0.0,5.0,48,0.00,,---,0.00,VWS V14.01,2013-07-29 16:47:00,
2013-07-29 12:48:00,77.6,56.4,30.06,SW,217,1.0,5.0,48,0.00,,---,0.00,VWS V14.01,2013-07-29 16:48:00,
2013-07-29 12:49:00,77.7,57.0,30.06,SW,230,2.0,5.0,49,0.00,,---,0.00,VWS V14.01,2013-07-29 16:49:00,
2013-07-29 12:53:00,77.9,57.2,30.06,NW,304,0.0,5.0,49,0.00,,---,0.00,VWS V14.01,2013-07-29 16:53:00,
2013-07-29 12:54:00,77.9,56.7,30.06,NW,304,0.0,0.0,48,0.00,,---,0.00,VWS V14.01,2013-07-29 16:54:00,
2013-07-29 12:58:00,78.1,55.0,30.06,North,355,3.0,6.0,45,0.00,,---,0.00,VWS V14.01,2013-07-29 16:58:00,
2013-07-29 12:59:00,77.9,56.7,30.06,NW,321,2.0,4.0,48,0.00,,---,0.00,VWS V14.01,2013-07-29 16:59:00,
2013-07-29 13:03:00,77.9,56.1,30.06,NNE,27,1.0,3.0,47,0.00,,---,0.00,VWS V14.01,2013-07-29 17:03:00,
2013-07-29 13:04:00,77.7,54.7,30.06,North,10,5.0,5.0,45,0.00,,---,0.00,VWS V14.01,2013-07-29 17:04:00,
2013-07-29 13:08:00,77.6,57.0,30.06,NW,308,1.0,6.0,49,0.00,,---,0.00,VWS V14.01,2013-07-29 17:08:00,
2013-07-29 13:09:00,77.6,58.6,30.06,NNW,339,0.0,1.0,52,0.00,,---,0.00,VWS V14.01,2013-07-29 17:09:00,
2013-07-29 13:13:00,77.2,55.4,30.06,WNW,296,4.0,6.0,47,0.00,,---,0.00,VWS V14.01,2013-07-29 17:13:00,
2013-07-29 13:14:00,77.2,56.6,30.06,WNW,296,1.0,2.0,49,0.00,,---,0.00,VWS V14.01,2013-07-29 17:14:00,
2013-07-29 13:18:00,77.2,56.0,30.06,WNW,302,4.0,11.0,48,0.00,,---,0.00,VWS V14.01,2013-07-29 17:18:00,
2013-07-29 13:19:00,77.2,56.0,30.06,NNW,348,3.0,3.0,48,0.00,,---,0.00,VWS V14.01,2013-07-29 17:19:00,
2013-07-29 13:20:00,77.2,55.4,30.06,NNW,344,1.0,1.0,47,0.00,,---,0.00,VWS V14.01,2013-07-29 17:20:00,
2013-07-29 13:24:00,77.4,56.2,30.06,North,355,3.0,4.0,48,0.00,,---,0.00,VWS V14.01,2013-07-29 17:24:00,
2013-07-29 13:25:00,77.4,55.6,30.06,North,355,0.0,1.0,47,0.00,,---,0.00,VWS V14.01,2013-07-29 17:25:00,
2013-07-29 13:26:00,77.2,54.2,30.06,North,5,2.0,5.0,45,0.00,,---,0.00,VWS V14.01,2013-07-29 17:26:00,
2013-07-29 13:29:00,77.0,55.8,30.06,NE,55,1.0,3.0,48,0.00,,---,0.00,VWS V14.01,2013-07-29 17:29:00,
2013-07-29 13:30:00,77.0,55.8,30.06,NE,55,0.0,1.0,48,0.00,,---,0.00,VWS V14.01,2013-07-29 17:30:00,
2013-07-29 13:31:00,76.8,54.5,30.06,NNW,344,0.0,3.0,46,0.00,,---,0.00,VWS V14.01,2013-07-29 17:31:00,
2013-07-29 13:34:00,76.8,55.7,30.06,NNW,344,0.0,0.0,48,0.00,,---,0.00,VWS V14.01,2013-07-29 17:34:00,
2013-07-29 13:35:00,76.8,55.7,30.06,West,268,1.0,6.0,48,0.00,,---,0.00,VWS V14.01,2013-07-29 17:35:00,
2013-07-29 13:37:00,76.8,58.4,30.06,WSW,252,1.0,1.0,53,0.00,,---,0.00,VWS V14.01,2013-07-29 17:37:00,
2013-07-29 13:39:00,76.8,56.8,30.06,West,266,0.0,3.0,50,0.00,,---,0.00,VWS V14.01,2013-07-29 17:39:00,
2013-07-29 13:40:00,77.0,57.5,30.06,West,266,0.0,3.0,51,0.00,,---,0.00,VWS V14.01,2013-07-29 17:40:00,
2013-07-29 13:41:00,77.0,58.6,30.06,WSW,242,3.0,5.0,53,0.00,,---,0.00,VWS V14.01,2013-07-29 17:41:00,
2013-07-29 13:42:00,77.2,57.7,30.06,SW,219,0.0,0.0,51,0.00,,---,0.00,VWS V14.01,2013-07-29 17:42:00,
2013-07-29 13:44:00,77.2,55.4,30.06,SW,219,0.0,0.0,47,0.00,,---,0.00,VWS V14.01,2013-07-29 17:44:00,
2013-07-29 13:45:00,77.2,56.0,30.06,SW,224,0.0,7.0,48,0.00,,---,0.00,VWS V14.01,2013-07-29 17:45:00,
2013-07-29 13:46:00,77.2,55.4,30.06,West,260,0.0,7.0,47,0.00,,---,0.00,VWS V14.01,2013-07-29 17:46:00,
2013-07-29 13:48:00,77.2,57.1,30.06,WSW,244,3.0,7.0,50,0.00,,---,0.00,VWS V14.01,2013-07-29 17:48:00,
2013-07-29 13:49:00,77.4,59.0,30.06,SW,218,0.0,4.0,53,0.00,,---,0.00,VWS V14.01,2013-07-29 17:49:00,
2013-07-29 13:51:00,77.4,57.3,30.06,SW,223,1.0,1.0,50,0.00,,---,0.00,VWS V14.01,2013-07-29 17:51:00,
2013-07-29 13:52:00,77.4,57.3,30.06,NW,313,0.0,4.0,50,0.00,,---,0.00,VWS V14.01,2013-07-29 17:52:00,
2013-07-29 13:53:00,77.4,57.3,30.06,NW,313,2.0,2.0,50,0.00,,---,0.00,VWS V14.01,2013-07-29 17:53:00,
2013-07-29 13:55:00,77.4,56.8,30.06,NW,313,4.0,4.0,49,0.00,,---,0.00,VWS V14.01,2013-07-29 17:55:00,
2013-07-29 13:56:00,77.4,56.8,30.06,WNW,297,0.0,3.0,49,0.00,,---,0.00,VWS V14.01,2013-07-29 17:56:00,
2013-07-29 13:57:00,77.4,56.2,30.06,WNW,302,3.0,3.0,48,0.00,,---,0.00,VWS V14.01,2013-07-29 17:57:00,
2013-07-29 13:58:00,77.2,55.4,30.06,NNW,340,0.0,3.0,47,0.00,,---,0.00,VWS V14.01,2013-07-29 17:58:00,
2013-07-29 14:00:00,77.2,56.6,30.06,NW,308,4.0,4.0,49,0.00,,---,0.00,VWS V14.01,2013-07-29 18:00:00,
2013-07-29 14:01:00,77.2,56.6,30.06,WNW,290,5.0,9.0,49,0.00,,---,0.00,VWS V14.01,2013-07-29 18:01:00,
2013-07-29 14:02:00,77.2,56.6,30.06,WNW,302,0.0,9.0,49,0.00,,---,0.00,VWS V14.01,2013-07-29 18:02:00,
2013-07-29 14:05:00,77.2,56.0,30.06,West,261,1.0,1.0,48,0.00,,---,0.00,VWS V14.01,2013-07-29 18:05:00,
2013-07-29 14:06:00,77.0,57.5,30.06,WSW,244,2.0,4.0,51,0.00,,---,0.00,VWS V14.01,2013-07-29 18:06:00,
2013-07-29 14:07:00,77.0,57.5,30.06,WSW,242,4.0,5.0,51,0.00,,---,0.00,VWS V14.01,2013-07-29 18:07:00,
2013-07-29 14:10:00,77.0,58.6,30.06,SW,231,0.0,1.0,53,0.00,,---,0.00,VWS V14.01,2013-07-29 18:10:00,
2013-07-29 14:11:00,77.2,57.1,30.06,SW,231,2.0,4.0,50,0.00,,---,0.00,VWS V14.01,2013-07-29 18:11:00,
2013-07-29 14:12:00,77.2,59.3,30.06,WNW,282,1.0,3.0,54,0.00,,---,0.00,VWS V14.01,2013-07-29 18:12:00,
2013-07-29 14:15:00,77.2,57.7,30.06,NW,311,0.0,4.0,51,0.00,,---,0.00,VWS V14.01,2013-07-29 18:15:00,
2013-07-29 14:16:00,77.2,55.4,30.06,NW,311,0.0,0.0,47,0.00,,---,0.00,VWS V14.01,2013-07-29 18:16:00,
2013-07-29 14:17:00,77.4,56.8,30.06,NW,306,5.0,5.0,49,0.00,,---,0.00,VWS V14.01,2013-07-29 18:17:00,
2013-07-29 14:20:00,77.4,56.8,30.06,West,263,3.0,4.0,49,0.00,,---,0.00,VWS V14.01,2013-07-29 18:20:00,
2013-07-29 14:21:00,77.6,58.6,30.06,West,265,3.0,3.0,52,0.00,,---,0.00,VWS V14.01,2013-07-29 18:21:00,
2013-07-29 14:23:00,77.6,58.6,30.06,West,263,0.0,0.0,52,0.00,,---,0.00,VWS V14.01,2013-07-29 18:23:00,
2013-07-29 14:25:00,77.7,57.6,30.06,West,263,5.0,5.0,50,0.00,,---,0.00,VWS V14.01,2013-07-29 18:25:00,
2013-07-29 14:27:00,77.7,58.7,30.06,SW,235,0.0,6.0,52,0.00,,---,0.00,VWS V14.01,2013-07-29 18:27:00,
2013-07-29 14:28:00,77.9,57.8,30.06,SSW,200,2.0,2.0,50,0.00,,---,0.00,VWS V14.01,2013-07-29 18:28:00,
2013-07-29 14:31:00,78.1,56.8,30.06,SW,221,0.0,0.0,48,0.00,,---,0.00,VWS V14.01,2013-07-29 18:31:00,
2013-07-29 14:32:00,78.1,58.0,30.06,SSW,201,4.0,7.0,50,0.00,,---,0.00,VWS V14.01,2013-07-29 18:32:00,
2013-07-29 14:34:00,78.3,58.2,30.06,SSE,161,1.0,3.0,50,0.00,,---,0.00,VWS V14.01,2013-07-29 18:34:00,
2013-07-29 14:36:00,78.5,56.0,30.06,SW,217,1.0,1.0,46,0.00,,---,0.00,VWS V14.01,2013-07-29 18:36:00,
2013-07-29 14:37:00,78.5,57.2,30.06,West,281,1.0,1.0,48,0.00,,---,0.00,VWS V14.01,2013-07-29 18:37:00,
2013-07-29 14:39:00,78.5,56.6,30.06,West,281,0.0,0.0,47,0.00,,---,0.00,VWS V14.01,2013-07-29 18:39:00,
2013-07-29 14:41:00,78.5,55.4,30.06,West,281,0.0,0.0,45,0.00,,---,0.00,VWS V14.01,2013-07-29 18:41:00,
2013-07-29 14:43:00,78.5,54.2,30.06,NNE,22,0.0,4.0,43,0.00,,---,0.00,VWS V14.01,2013-07-29 18:43:00,
2013-07-29 14:44:00,78.5,54.2,30.06,NNE,22,0.0,0.0,43,0.00,,---,0.00,VWS V14.01,2013-07-29 18:44:00,
2013-07-29 14:46:00,78.5,57.8,30.06,SW,235,5.0,5.0,49,0.00,,---,0.00,VWS V14.01,2013-07-29 18:46:00,
2013-07-29 14:48:00,78.6,59.5,30.05,SW,236,0.0,1.0,52,0.00,,---,0.00,VWS V14.01,2013-07-29 18:48:00,
2013-07-29 14:49:00,78.5,58.3,30.05,SW,235,0.0,2.0,50,0.00,,---,0.00,VWS V14.01,2013-07-29 18:49:00,
2013-07-29 14:51:00,78.5,58.9,30.05,SW,229,1.0,3.0,51,0.00,,---,0.00,VWS V14.01,2013-07-29 18:51:00,
2013-07-29 14:53:00,78.5,59.4,30.05,SW,229,3.0,6.0,52,0.00,,---,0.00,VWS V14.01,2013-07-29 18:53:00,
2013-07-29 14:54:00,78.3,57.6,30.05,SW,230,0.0,2.0,49,0.00,,---,0.00,VWS V14.01,2013-07-29 18:54:00,
2013-07-29 14:57:00,78.1,57.4,30.05,SW,230,0.0,0.0,49,0.00,,---,0.00,VWS V14.01,2013-07-29 18:57:00,
2013-07-29 14:58:00,78.1,58.0,30.05,SW,230,0.0,0.0,50,0.00,,---,0.00,VWS V14.01,2013-07-29 18:58:00,
2013-07-29 15:00:00,78.1,59.6,30.05,SW,229,3.0,6.0,53,0.00,,---,0.00,VWS V14.01,2013-07-29 19:00:00,
2013-07-29 15:02:00,77.9,58.9,30.06,WNW,297,1.0,5.0,52,0.00,,---,0.00,VWS V14.01,2013-07-29 19:02:00,
2013-07-29 15:04:00,77.7,57.6,30.06,WNW,284,0.0,3.0,50,0.00,,---,0.00,VWS V14.01,2013-07-29 19:04:00,
2013-07-29 15:05:00,77.7,56.5,30.06,WNW,284,0.0,1.0,48,0.00,,---,0.00,VWS V14.01,2013-07-29 19:05:00,
2013-07-29 15:08:00,77.7,57.6,30.06,West,265,2.0,5.0,50,0.00,,---,0.00,VWS V14.01,2013-07-29 19:08:00,
2013-07-29 15:09:00,77.6,56.4,30.06,West,265,0.0,0.0,48,0.00,,---,0.00,VWS V14.01,2013-07-29 19:09:00,
2013-07-29 15:10:00,77.6,55.8,30.06,West,265,0.0,0.0,47,0.00,,---,0.00,VWS V14.01,2013-07-29 19:10:00,
2013-07-29 15:13:00,77.6,57.0,30.06,WSW,254,0.0,0.0,49,0.00,,---,0.00,VWS V14.01,2013-07-29 19:13:00,
2013-07-29 15:15:00,77.6,57.5,30.06,WSW,254,0.0,0.0,50,0.00,,---,0.00,VWS V14.01,2013-07-29 19:15:00,
2013-07-29 15:18:00,77.4,55.0,30.06,NW,306,0.0,1.0,46,0.00,,---,0.00,VWS V14.01,2013-07-29 19:18:00,
2013-07-29 15:20:00,77.4,55.0,30.06,NNW,342,3.0,3.0,46,0.00,,---,0.00,VWS V14.01,2013-07-29 19:20:00,
2013-07-29 15:23:00,77.4,55.0,30.06,NNW,342,0.0,1.0,46,0.00,,---,0.00,VWS V14.01,2013-07-29 19:23:00,
2013-07-29 15:25:00,77.2,54.2,30.06,NNW,342,0.0,0.0,45,0.00,,---,0.00,VWS V14.01,2013-07-29 19:25:00,
2013-07-29 15:28:00,77.2,56.6,30.06,NNW,342,0.0,0.0,49,0.00,,---,0.00,VWS V14.01,2013-07-29 19:28:00,
2013-07-29 15:30:00,77.2,57.1,30.06,NW,325,2.0,2.0,50,0.00,,---,0.00,VWS V14.01,2013-07-29 19:30:00,
2013-07-29 15:31:00,77.2,57.1,30.06,NW,325,0.0,2.0,50,0.00,,---,0.00,VWS V14.01,2013-07-29 19:31:00,
2013-07-29 15:33:00,77.0,55.2,30.06,NW,325,0.0,3.0,47,0.00,,---,0.00,VWS V14.01,2013-07-29 19:33:00,
2013-07-29 15:36:00,76.8,55.1,30.06,WNW,299,0.0,0.0,47,0.00,,---,0.00,VWS V14.01,2013-07-29 19:36:00,
2013-07-29 15:39:00,76.7,56.7,30.06,WNW,285,0.0,7.0,50,0.00,,---,0.00,VWS V14.01,2013-07-29 19:39:00,
2013-07-29 15:41:00,76.7,56.1,30.06,WNW,286,1.0,4.0,49,0.00,,---,0.00,VWS V14.01,2013-07-29 19:41:00,
2013-07-29 15:44:00,76.5,55.4,30.06,WNW,286,0.0,0.0,48,0.00,,---,0.00,VWS V14.01,2013-07-29 19:44:00,
2013-07-29 15:46:00,76.5,55.9,30.06,WNW,286,0.0,0.0,49,0.00,,---,0.00,VWS V14.01,2013-07-29 19:46:00,
2013-07-29 15:47:00,76.3,55.8,30.06,WNW,286,0.0,1.0,49,0.00,,---,0.00,VWS V14.01,2013-07-29 19:47:00,
2013-07-29 15:49:00,76.3,57.4,30.06,WNW,286,0.0,0.0,52,0.00,,---,0.00,VWS V14.01,2013-07-29 19:49:00,
2013-07-29 15:51:00,76.3,57.4,30.06,WNW,286,0.0,0.0,52,0.00,,---,0.00,VWS V14.01,2013-07-29 19:51:00,
2013-07-29 15:52:00,76.3,57.4,30.06,NNE,16,0.0,3.0,52,0.00,,---,0.00,VWS V14.01,2013-07-29 19:52:00,
2013-07-29 15:53:00,76.3,57.4,30.06,NNE,16,0.0,3.0,52,0.00,,---,0.00,VWS V14.01,2013-07-29 19:53:00,
2013-07-29 15:55:00,76.1,58.3,30.06,NNE,16,0.0,0.0,54,0.00,,---,0.00,VWS V14.01,2013-07-29 19:55:00,
2013-07-29 15:56:00,76.1,58.3,30.06,NNE,16,0.0,0.0,54,0.00,,---,0.00,VWS V14.01,2013-07-29 19:56:00,
2013-07-29 15:57:00,76.1,57.8,30.06,NNE,16,0.0,1.0,53,0.00,,---,0.00,VWS V14.01,2013-07-29 19:57:00,
2013-07-29 15:58:00,76.1,57.8,30.06,NNE,16,0.0,1.0,53,0.00,,---,0.00,VWS V14.01,2013-07-29 19:58:00,
2013-07-29 16:00:00,76.1,58.3,30.06,NNE,16,0.0,0.0,54,0.00,,---,0.00,VWS V14.01,2013-07-29 20:00:00,
2013-07-29 16:02:00,76.0,58.7,30.06,NNE,16,1.0,1.0,55,0.00,,---,0.00,VWS V14.01,2013-07-29 20:02:00,
2013-07-29 16:03:00,76.0,59.7,30.05,NNE,16,0.0,1.0,57,0.00,,---,0.00,VWS V14.01,2013-07-29 20:03:00,
2013-07-29 16:05:00,76.0,59.2,30.05,NW,311,0.0,0.0,56,0.00,,---,0.00,VWS V14.01,2013-07-29 20:05:00,
2013-07-29 16:07:00,76.0,59.2,30.05,NW,313,3.0,3.0,56,0.00,,---,0.00,VWS V14.01,2013-07-29 20:07:00,
2013-07-29 16:08:00,76.0,57.1,30.05,WSW,243,4.0,6.0,52,0.00,,---,0.00,VWS V14.01,2013-07-29 20:08:00,
2013-07-29 16:09:00,76.0,57.7,30.05,West,260,0.0,5.0,53,0.00,,---,0.00,VWS V14.01,2013-07-29 20:09:00,
2013-07-29 16:10:00,76.0,57.7,30.05,WSW,256,2.0,4.0,53,0.00,,---,0.00,VWS V14.01,2013-07-29 20:10:00,
2013-07-29 16:12:00,76.0,57.1,30.05,NW,305,3.0,5.0,52,0.00,,---,0.00,VWS V14.01,2013-07-29 20:12:00,
2013-07-29 16:13:00,75.8,56.4,30.05,WSW,238,4.0,4.0,51,0.00,,---,0.00,VWS V14.01,2013-07-29 20:13:00,
2013-07-29 16:14:00,76.0,57.7,30.05,WNW,283,0.0,5.0,53,0.00,,---,0.00,VWS V14.01,2013-07-29 20:14:00,
2013-07-29 16:15:00,76.0,58.7,30.05,WNW,290,2.0,5.0,55,0.00,,---,0.00,VWS V14.01,2013-07-29 20:15:00,
2013-07-29 16:17:00,76.0,58.7,30.05,WSW,258,0.0,0.0,55,0.00,,---,0.00,VWS V14.01,2013-07-29 20:17:00,
2013-07-29 16:18:00,76.0,56.0,30.05,WSW,258,1.0,1.0,50,0.00,,---,0.00,VWS V14.01,2013-07-29 20:18:00,
2013-07-29 16:19:00,76.0,56.0,30.05,West,271,7.0,7.0,50,0.00,,---,0.00,VWS V14.01,2013-07-29 20:19:00,
2013-07-29 16:21:00,76.0,54.9,30.05,NNW,331,2.0,7.0,48,0.00,,---,0.00,VWS V14.01,2013-07-29 20:21:00,
2013-07-29 16:22:00,76.0,55.5,30.05,SW,222,2.0,6.0,49,0.00,,---,0.00,VWS V14.01,2013-07-29 20:22:00,
2013-07-29 16:23:00,76.0,56.6,30.05,NNW,340,1.0,10.0,51,0.00,,---,0.00,VWS V14.01,2013-07-29 20:23:00,
2013-07-29 16:24:00,76.0,56.6,30.05,SW,228,2.0,10.0,51,0.00,,---,0.00,VWS V14.01,2013-07-29 20:24:00,
2013-07-29 16:26:00,76.0,54.9,30.05,WNW,282,0.0,0.0,48,0.00,,---,0.00,VWS V14.01,2013-07-29 20:26:00,
2013-07-29 16:27:00,76.0,54.9,30.05,West,259,0.0,2.0,48,0.00,,---,0.00,VWS V14.01,2013-07-29 20:27:00,
2013-07-29 16:29:00,76.0,54.3,30.05,NNW,327,0.0,9.0,47,0.00,,---,0.00,VWS V14.01,2013-07-29 20:29:00,
2013-07-29 16:32:00,76.0,54.9,30.05,West,263,0.0,1.0,48,0.00,,---,0.00,VWS V14.01,2013-07-29 20:32:00,
2013-07-29 16:33:00,76.0,54.9,30.05,WNW,297,0.0,5.0,48,0.00,,---,0.00,VWS V14.01,2013-07-29 20:33:00,
2013-07-29 16:34:00,76.1,55.6,30.05,WNW,297,0.0,0.0,49,0.00,,---,0.00,VWS V14.01,2013-07-29 20:34:00,
2013-07-29 16:37:00,76.1,55.6,30.05,WSW,249,4.0,7.0,49,0.00,,---,0.00,VWS V14.01,2013-07-29 20:37:00,
2013-07-29 16:38:00,76.1,56.1,30.05,WSW,238,0.0,0.0,50,0.00,,---,0.00,VWS V14.01,2013-07-29 20:38:00,
2013-07-29 16:39:00,76.1,56.1,30.05,WSW,248,6.0,6.0,50,0.00,,---,0.00,VWS V14.01,2013-07-29 20:39:00,
2013-07-29 16:40:00,76.1,56.1,30.05,WSW,251,0.0,6.0,50,0.00,,---,0.00,VWS V14.01,2013-07-29 20:40:00,
2013-07-29 16:42:00,76.1,54.4,30.05,WNW,300,0.0,0.0,47,0.00,,---,0.00,VWS V14.01,2013-07-29 20:42:00,
2013-07-29 16:43:00,76.1,54.4,30.05,WSW,250,3.0,3.0,47,0.00,,---,0.00,VWS V14.01,2013-07-29 20:43:00,
2013-07-29 16:44:00,76.1,55.6,30.05,WSW,244,1.0,6.0,49,0.00,,---,0.00,VWS V14.01,2013-07-29 20:44:00,
2013-07-29 16:45:00,76.1,55.6,30.05,SW,223,6.0,6.0,49,0.00,,---,0.00,VWS V14.01,2013-07-29 20:45:00,
2013-07-29 16:47:00,76.1,55.0,30.05,SW,221,2.0,10.0,48,0.00,,---,0.00,VWS V14.01,2013-07-29 20:47:00,
2013-07-29 16:49:00,76.3,55.2,30.05,SW,221,0.0,0.0,48,0.00,,---,0.00,VWS V14.01,2013-07-29 20:49:00,
2013-07-29 16:50:00,76.3,55.8,30.05,SSW,192,0.0,4.0,49,0.00,,---,0.00,VWS V14.01,2013-07-29 20:50:00,
2013-07-29 16:53:00,76.3,56.3,30.05,WSW,257,0.0,1.0,50,0.00,,---,0.00,VWS V14.01,2013-07-29 20:53:00,
2013-07-29 16:54:00,76.3,56.3,30.05,WSW,238,0.0,0.0,50,0.00,,---,0.00,VWS V14.01,2013-07-29 20:54:00,
2013-07-29 16:55:00,76.3,56.3,30.05,WSW,237,1.0,3.0,50,0.00,,---,0.00,VWS V14.01,2013-07-29 20:55:00,
2013-07-29 16:58:00,76.3,56.3,30.05,SW,218,0.0,1.0,50,0.00,,---,0.00,VWS V14.01,2013-07-29 20:58:00,
2013-07-29 16:59:00,76.3,56.3,30.05,SW,218,0.0,0.0,50,0.00,,---,0.00,VWS V14.01,2013-07-29 20:59:00,
2013-07-29 17:00:00,76.3,56.9,30.05,SW,219,0.0,1.0,51,0.00,,---,0.00,VWS V14.01,2013-07-29 21:00:00,
2013-07-29 17:03:00,76.3,55.8,30.05,WSW,249,0.0,0.0,49,0.00,,---,0.00,VWS V14.01,2013-07-29 21:03:00,
2013-07-29 17:04:00,76.5,56.5,30.05,SW,229,0.0,0.0,50,0.00,,---,0.00,VWS V14.01,2013-07-29 21:04:00,
2013-07-29 17:05:00,76.5,55.9,30.05,SW,229,0.0,0.0,49,0.00,,---,0.00,VWS V14.01,2013-07-29 21:05:00,
2013-07-29 17:06:00,76.3,54.6,30.05,WNW,291,0.0,4.0,47,0.00,,---,0.00,VWS V14.01,2013-07-29 21:06:00,
2013-07-29 17:08:00,76.3,55.2,30.05,SSW,211,0.0,2.0,48,0.00,,---,0.00,VWS V14.01,2013-07-29 21:08:00,
2013-07-29 17:09:00,76.3,54.6,30.05,SSW,211,0.0,1.0,47,0.00,,---,0.00,VWS V14.01,2013-07-29 21:09:00,
2013-07-29 17:10:00,76.3,55.2,30.05,SSW,211,0.0,1.0,48,0.00,,---,0.00,VWS V14.01,2013-07-29 21:10:00,
2013-07-29 17:11:00,76.3,55.2,30.05,SSW,212,3.0,5.0,48,0.00,,---,0.00,VWS V14.01,2013-07-29 21:11:00,
2013-07-29 17:14:00,76.3,55.2,30.05,SW,232,1.0,4.0,48,0.00,,---,0.00,VWS V14.01,2013-07-29 21:14:00,
2013-07-29 17:15:00,76.3,55.2,30.05,SW,233,2.0,5.0,48,0.00,,---,0.00,VWS V14.01,2013-07-29 21:15:00,
2013-07-29 17:16:00,76.3,56.9,30.05,WSW,239,5.0,5.0,51,0.00,,---,0.00,VWS V14.01,2013-07-29 21:16:00,
2013-07-29 17:19:00,76.3,55.2,30.05,West,259,3.0,4.0,48,0.00,,---,0.00,VWS V14.01,2013-07-29 21:19:00,
2013-07-29 17:20:00,76.3,55.2,30.05,West,259,0.0,4.0,48,0.00,,---,0.00,VWS V14.01,2013-07-29 21:20:00,
2013-07-29 17:22:00,76.3,55.2,30.05,WSW,254,1.0,2.0,48,0.00,,---,0.00,VWS V14.01,2013-07-29 21:22:00,
2013-07-29 17:24:00,76.1,55.0,30.05,West,260,4.0,4.0,48,0.00,,---,0.00,VWS V14.01,2013-07-29 21:24:00,
2013-07-29 17:25:00,76.1,55.0,30.05,West,275,0.0,5.0,48,0.00,,---,0.00,VWS V14.01,2013-07-29 21:25:00,
2013-07-29 17:26:00,76.1,55.0,30.05,West,275,0.0,1.0,48,0.00,,---,0.00,VWS V14.01,2013-07-29 21:26:00,
2013-07-29 17:27:00,76.1,55.0,30.05,West,275,1.0,1.0,48,0.00,,---,0.00,VWS V14.01,2013-07-29 21:27:00,
2013-07-29 17:29:00,76.1,55.6,30.05,West,274,0.0,4.0,49,0.00,,---,0.00,VWS V14.01,2013-07-29 21:29:00,
2013-07-29 17:30:00,76.0,55.5,30.05,West,274,0.0,0.0,49,0.00,,---,0.00,VWS V14.01,2013-07-29 21:30:00,
2013-07-29 17:32:00,76.0,55.5,30.05,West,275,0.0,1.0,49,0.00,,---,0.00,VWS V14.01,2013-07-29 21:32:00,
2013-07-29 17:34:00,76.0,54.9,30.05,NW,321,0.0,1.0,48,0.00,,---,0.00,VWS V14.01,2013-07-29 21:34:00,
2013-07-29 17:35:00,76.0,54.9,30.05,NW,315,3.0,4.0,48,0.00,,---,0.00,VWS V14.01,2013-07-29 21:35:00,
2013-07-29 17:37:00,75.8,54.2,30.05,WNW,292,0.0,0.0,47,0.00,,---,0.00,VWS V14.01,2013-07-29 21:37:00,
2013-07-29 17:39:00,75.8,54.7,30.05,West,279,4.0,4.0,48,0.00,,---,0.00,VWS V14.01,2013-07-29 21:39:00,
2013-07-29 17:41:00,75.8,53.6,30.05,WNW,289,0.0,1.0,46,0.00,,---,0.00,VWS V14.01,2013-07-29 21:41:00,
2013-07-29 17:42:00,75.8,54.2,30.05,WSW,247,1.0,6.0,47,0.00,,---,0.00,VWS V14.01,2013-07-29 21:42:00,
2013-07-29 17:43:00,75.8,54.2,30.05,WSW,248,1.0,6.0,47,0.00,,---,0.00,VWS V14.01,2013-07-29 21:43:00,
2013-07-29 17:44:00,75.6,54.5,30.05,WSW,257,0.0,5.0,48,0.00,,---,0.00,VWS V14.01,2013-07-29 21:44:00,
2013-07-29 17:47:00,75.6,54.0,30.05,WNW,296,0.0,6.0,47,0.00,,---,0.00,VWS V14.01,2013-07-29 21:47:00,
2013-07-29 17:48:00,75.6,54.0,30.05,SSW,202,0.0,1.0,47,0.00,,---,0.00,VWS V14.01,2013-07-29 21:48:00,
2013-07-29 17:49:00,75.6,55.1,30.05,SSW,202,0.0,1.0,49,0.00,,---,0.00,VWS V14.01,2013-07-29 21:49:00,
2013-07-29 17:50:00,75.4,54.4,30.05,SSW,202,0.0,1.0,48,0.00,,---,0.00,VWS V14.01,2013-07-29 21:50:00,
2013-07-29 17:52:00,75.4,54.9,30.05,West,271,1.0,4.0,49,0.00,,---,0.00,VWS V14.01,2013-07-29 21:52:00,
2013-07-29 17:54:00,75.4,54.4,30.05,West,272,0.0,4.0,48,0.00,,---,0.00,VWS V14.01,2013-07-29 21:54:00,
2013-07-29 17:55:00,75.4,54.9,30.05,NW,304,6.0,11.0,49,0.00,,---,0.00,VWS V14.01,2013-07-29 21:55:00,
2013-07-29 17:57:00,75.3,54.3,30.05,West,277,0.0,4.0,48,0.00,,---,0.00,VWS V14.01,2013-07-29 21:57:00,
2013-07-29 17:59:00,75.3,53.7,30.05,WNW,292,1.0,3.0,47,0.00,,---,0.00,VWS V14.01,2013-07-29 21:59:00,
2013-07-29 18:00:00,75.3,54.8,30.05,NW,306,4.0,4.0,49,0.00,,---,0.00,VWS V14.01,2013-07-29 22:00:00,
2013-07-29 18:02:00,75.3,54.8,30.05,WNW,290,0.0,0.0,49,0.00,,---,0.00,VWS V14.01,2013-07-29 22:02:00,
2013-07-29 18:04:00,75.3,54.8,30.05,WNW,294,5.0,5.0,49,0.00,,---,0.00,VWS V14.01,2013-07-29 22:04:00,
2013-07-29 18:05:00,75.1,53.5,30.05,WNW,293,0.0,0.0,47,0.00,,---,0.00,VWS V14.01,2013-07-29 22:05:00,
2013-07-29 18:07:00,75.1,54.1,30.05,WNW,293,0.0,0.0,48,0.00,,---,0.00,VWS V14.01,2013-07-29 22:07:00,
2013-07-29 18:09:00,75.1,54.7,30.05,WNW,294,0.0,2.0,49,0.00,,---,0.00,VWS V14.01,2013-07-29 22:09:00,
2013-07-29 18:10:00,75.1,54.7,30.05,WNW,294,0.0,2.0,49,0.00,,---,0.00,VWS V14.01,2013-07-29 22:10:00,
2013-07-29 18:12:00,75.1,55.8,30.05,WSW,246,0.0,2.0,51,0.00,,---,0.00,VWS V14.01,2013-07-29 22:12:00,
2013-07-29 18:14:00,75.1,55.8,30.05,NW,313,0.0,6.0,51,0.00,,---,0.00,VWS V14.01,2013-07-29 22:14:00,
2013-07-29 18:15:00,75.1,54.7,30.05,NW,313,0.0,0.0,49,0.00,,---,0.00,VWS V14.01,2013-07-29 22:15:00,
2013-07-29 18:16:00,74.9,54.5,30.05,NW,313,0.0,0.0,49,0.00,,---,0.00,VWS V14.01,2013-07-29 22:16:00,
2013-07-29 18:18:00,74.9,54.5,30.05,NW,319,0.0,0.0,49,0.00,,---,0.00,VWS V14.01,2013-07-29 22:18:00,
2013-07-29 18:20:00,74.9,55.6,30.05,West,281,4.0,6.0,51,0.00,,---,0.00,VWS V14.01,2013-07-29 22:20:00,
2013-07-29 18:21:00,74.9,54.5,30.05,West,281,0.0,3.0,49,0.00,,---,0.00,VWS V14.01,2013-07-29 22:21:00,
2013-07-29 18:23:00,74.9,55.0,30.05,West,281,0.0,1.0,50,0.00,,---,0.00,VWS V14.01,2013-07-29 22:23:00,
2013-07-29 18:25:00,74.7,54.8,30.05,WNW,286,0.0,1.0,50,0.00,,---,0.00,VWS V14.01,2013-07-29 22:25:00,
2013-07-29 18:26:00,74.7,55.4,30.05,West,267,4.0,4.0,51,0.00,,---,0.00,VWS V14.01,2013-07-29 22:26:00,
2013-07-29 18:28:00,74.7,54.3,30.05,SW,222,1.0,6.0,49,0.00,,---,0.00,VWS V14.01,2013-07-29 22:28:00,
2013-07-29 18:30:00,74.7,54.8,30.05,SW,222,1.0,1.0,50,0.00,,---,0.00,VWS V14.01,2013-07-29 22:30:00,
2013-07-29 18:31:00,74.6,54.2,30.05,SW,222,1.0,1.0,49,0.00,,---,0.00,VWS V14.01,2013-07-29 22:31:00,
2013-07-29 18:32:00,74.6,54.2,30.05,SW,222,0.0,1.0,49,0.00,,---,0.00,VWS V14.01,2013-07-29 22:32:00,
2013-07-29 18:33:00,74.6,54.2,30.06,SW,222,0.0,0.0,49,0.00,,---,0.00,VWS V14.01,2013-07-29 22:33:00,
2013-07-29 18:35:00,74.6,54.8,30.06,SW,222,0.0,0.0,50,0.00,,---,0.00,VWS V14.01,2013-07-29 22:35:00,
2013-07-29 18:36:00,74.6,54.8,30.06,WNW,282,0.0,0.0,50,0.00,,---,0.00,VWS V14.01,2013-07-29 22:36:00,
2013-07-29 18:37:00,74.6,54.8,30.06,WNW,282,0.0,1.0,50,0.00,,---,0.00,VWS V14.01,2013-07-29 22:37:00,
2013-07-29 18:39:00,74.6,54.8,30.06,WSW,246,0.0,4.0,50,0.00,,---,0.00,VWS V14.01,2013-07-29 22:39:00,
2013-07-29 18:40:00,74.4,54.0,30.06,WSW,244,0.0,0.0,49,0.00,,---,0.00,VWS V14.01,2013-07-29 22:40:00,
2013-07-29 18:42:00,74.4,54.0,30.06,WSW,240,2.0,2.0,49,0.00,,---,0.00,VWS V14.01,2013-07-29 22:42:00,
2013-07-29 18:44:00,74.4,54.6,30.06,SW,220,0.0,0.0,50,0.00,,---,0.00,VWS V14.01,2013-07-29 22:44:00,
2013-07-29 18:46:00,74.2,54.4,30.06,WSW,247,0.0,0.0,50,0.00,,---,0.00,VWS V14.01,2013-07-29 22:46:00,
2013-07-29 18:47:00,74.2,54.9,30.06,WSW,247,0.0,1.0,51,0.00,,---,0.00,VWS V14.01,2013-07-29 22:47:00,
2013-07-29 18:49:00,74.2,54.4,30.06,WSW,247,0.0,0.0,50,0.00,,---,0.00,VWS V14.01,2013-07-29 22:49:00,
2013-07-29 18:51:00,74.0,54.2,30.06,NW,321,2.0,5.0,50,0.00,,---,0.00,VWS V14.01,2013-07-29 22:51:00,
2013-07-29 18:52:00,74.0,54.2,30.06,NW,323,0.0,3.0,50,0.00,,---,0.00,VWS V14.01,2013-07-29 22:52:00,
2013-07-29 18:53:00,74.0,53.1,30.06,NW,323,0.0,0.0,48,0.00,,---,0.00,VWS V14.01,2013-07-29 22:53:00,
2013-07-29 18:55:00,74.0,54.2,30.06,NW,323,0.0,0.0,50,0.00,,---,0.00,VWS V14.01,2013-07-29 22:55:00,
2013-07-29 18:56:00,74.0,53.7,30.06,NW,323,0.0,0.0,49,0.00,,---,0.00,VWS V14.01,2013-07-29 22:56:00,
2013-07-29 18:57:00,73.9,54.1,30.06,NW,323,0.0,0.0,50,0.00,,---,0.00,VWS V14.01,2013-07-29 22:57:00,
2013-07-29 19:00:00,73.9,55.2,30.06,NW,323,0.0,0.0,52,0.00,,---,0.00,VWS V14.01,2013-07-29 23:00:00,
2013-07-29 19:02:00,73.9,54.7,30.06,NW,323,0.0,1.0,51,0.00,,---,0.00,VWS V14.01,2013-07-29 23:02:00,
2013-07-29 19:05:00,73.7,54.5,30.07,NW,309,0.0,0.0,51,0.00,,---,0.00,VWS V14.01,2013-07-29 23:05:00,
2013-07-29 19:07:00,73.7,55.0,30.07,NW,309,0.0,0.0,52,0.00,,---,0.00,VWS V14.01,2013-07-29 23:07:00,
2013-07-29 19:10:00,73.7,55.0,30.07,NW,309,0.0,0.0,52,0.00,,---,0.00,VWS V14.01,2013-07-29 23:10:00,
2013-07-29 19:12:00,73.7,55.5,30.07,NW,309,0.0,0.0,53,0.00,,---,0.00,VWS V14.01,2013-07-29 23:12:00,
2013-07-29 19:13:00,73.7,55.5,30.07,NW,309,0.0,0.0,53,0.00,,---,0.00,VWS V14.01,2013-07-29 23:13:00,
2013-07-29 19:15:00,73.7,57.0,30.07,NW,309,0.0,0.0,56,0.00,,---,0.00,VWS V14.01,2013-07-29 23:15:00,
2013-07-29 19:16:00,73.5,56.4,30.07,NW,309,0.0,0.0,55,0.00,,---,0.00,VWS V14.01,2013-07-29 23:16:00,
2013-07-29 19:18:00,73.5,55.9,30.07,NW,309,0.0,0.0,54,0.00,,---,0.00,VWS V14.01,2013-07-29 23:18:00,
2013-07-29 19:20:00,73.3,55.7,30.07,NW,309,0.0,0.0,54,0.00,,---,0.00,VWS V14.01,2013-07-29 23:20:00,
2013-07-29 19:21:00,73.3,56.2,30.07,NW,309,0.0,0.0,55,0.00,,---,0.00,VWS V14.01,2013-07-29 23:21:00,
2013-07-29 19:23:00,73.3,56.2,30.07,NW,309,0.0,0.0,55,0.00,,---,0.00,VWS V14.01,2013-07-29 23:23:00,
2013-07-29 19:25:00,73.2,56.6,30.07,NW,309,0.0,0.0,56,0.00,,---,0.00,VWS V14.01,2013-07-29 23:25:00,
2013-07-29 19:27:00,73.2,57.1,30.07,NW,309,0.0,0.0,57,0.00,,---,0.00,VWS V14.01,2013-07-29 23:27:00,
2013-07-29 19:28:00,73.2,57.1,30.07,NW,309,0.0,0.0,57,0.00,,---,0.00,VWS V14.01,2013-07-29 23:28:00,
2013-07-29 19:30:00,73.0,55.9,30.07,NW,309,0.0,0.0,55,0.00,,---,0.00,VWS V14.01,2013-07-29 23:30:00,
2013-07-29 19:32:00,73.0,55.9,30.07,NW,309,0.0,0.0,55,0.00,,---,0.00,VWS V14.01,2013-07-29 23:32:00,
2013-07-29 19:33:00,72.8,55.7,30.07,NW,309,0.0,0.0,55,0.00,,---,0.00,VWS V14.01,2013-07-29 23:33:00,
2013-07-29 19:34:00,72.8,55.7,30.07,NW,309,0.0,0.0,55,0.00,,---,0.00,VWS V14.01,2013-07-29 23:34:00,
2013-07-29 19:35:00,72.7,56.1,30.07,NW,309,0.0,0.0,56,0.00,,---,0.00,VWS V14.01,2013-07-29 23:35:00,
2013-07-29 19:37:00,72.7,56.1,30.07,NW,309,0.0,0.0,56,0.00,,---,0.00,VWS V14.01,2013-07-29 23:37:00,
2013-07-29 19:38:00,72.5,55.9,30.07,NW,309,0.0,0.0,56,0.00,,---,0.00,VWS V14.01,2013-07-29 23:38:00,
2013-07-29 19:39:00,72.5,55.9,30.07,NW,309,0.0,0.0,56,0.00,,---,0.00,VWS V14.01,2013-07-29 23:39:00,
2013-07-29 19:41:00,72.3,55.7,30.07,NW,309,0.0,0.0,56,0.00,,---,0.00,VWS V14.01,2013-07-29 23:41:00,
2013-07-29 19:42:00,72.3,56.7,30.07,NW,309,0.0,0.0,58,0.00,,---,0.00,VWS V14.01,2013-07-29 23:42:00,
2013-07-29 19:44:00,72.1,56.5,30.07,NW,309,0.0,0.0,58,0.00,,---,0.00,VWS V14.01,2013-07-29 23:44:00,
2013-07-29 19:46:00,72.0,56.9,30.07,NW,309,0.0,0.0,59,0.00,,---,0.00,VWS V14.01,2013-07-29 23:46:00,
2013-07-29 19:48:00,71.8,56.7,30.08,NW,309,0.0,0.0,59,0.00,,---,0.00,VWS V14.01,2013-07-29 23:48:00,
2013-07-29 19:49:00,71.8,56.2,30.08,NW,309,0.0,0.0,58,0.00,,---,0.00,VWS V14.01,2013-07-29 23:49:00,
2013-07-29 19:52:00,71.6,56.5,30.08,NW,309,0.0,0.0,59,0.00,,---,0.00,VWS V14.01,2013-07-29 23:52:00,
2013-07-29 19:53:00,71.5,56.4,30.08,NW,309,0.0,0.0,59,0.00,,---,0.00,VWS V14.01,2013-07-29 23:53:00,
2013-07-29 19:54:00,71.5,56.9,30.08,NW,309,0.0,0.0,60,0.00,,---,0.00,VWS V14.01,2013-07-29 23:54:00,
2013-07-29 19:58:00,71.1,57.0,30.08,NW,309,0.0,0.0,61,0.00,,---,0.00,VWS V14.01,2013-07-29 23:58:00,
2013-07-29 19:59:00,70.9,56.8,30.08,NW,309,0.0,0.0,61,0.00,,---,0.00,VWS V14.01,2013-07-29 23:59:00,
2013-07-29 20:00:00,70.9,56.8,30.08,NW,309,0.0,0.0,61,0.00,,---,0.00,VWS V14.01,2013-07-30 00:00:00,
2013-07-29 20:03:00,70.8,56.2,30.09,NW,309,0.0,0.0,60,0.00,,---,0.00,VWS V14.01,2013-07-30 00:03:00,
2013-07-29 20:05:00,70.6,56.1,30.09,NW,309,0.0,0.0,60,0.00,,---,0.00,VWS V14.01,2013-07-30 00:05:00,
2013-07-29 20:08:00,70.3,55.8,30.09,NW,309,0.0,0.0,60,0.00,,---,0.00,VWS V14.01,2013-07-30 00:08:00,
2013-07-29 20:10:00,70.1,56.0,30.09,NW,309,0.0,0.0,61,0.00,,---,0.00,VWS V14.01,2013-07-30 00:10:00,
2013-07-29 20:13:00,69.9,56.3,30.09,NW,309,0.0,0.0,62,0.00,,---,0.00,VWS V14.01,2013-07-30 00:13:00,
2013-07-29 20:15:00,69.8,56.7,30.09,NW,309,0.0,0.0,63,0.00,,---,0.00,VWS V14.01,2013-07-30 00:15:00,
2013-07-29 20:18:00,69.4,56.3,30.09,NW,309,0.0,0.0,63,0.00,,---,0.00,VWS V14.01,2013-07-30 00:18:00,
2013-07-29 20:20:00,69.3,56.2,30.09,NW,309,0.0,0.0,63,0.00,,---,0.00,VWS V14.01,2013-07-30 00:20:00,
2013-07-29 20:23:00,69.1,56.0,30.09,SW,236,0.0,0.0,63,0.00,,---,0.00,VWS V14.01,2013-07-30 00:23:00,
2013-07-29 20:24:00,69.1,56.0,30.09,SW,236,0.0,0.0,63,0.00,,---,0.00,VWS V14.01,2013-07-30 00:24:00,
2013-07-29 20:25:00,68.9,56.2,30.09,SW,236,0.0,0.0,64,0.00,,---,0.00,VWS V14.01,2013-07-30 00:25:00,
2013-07-29 20:28:00,68.8,56.1,30.09,SW,236,0.0,0.0,64,0.00,,---,0.00,VWS V14.01,2013-07-30 00:28:00,
2013-07-29 20:29:00,68.8,56.1,30.09,SW,236,0.0,0.0,64,0.00,,---,0.00,VWS V14.01,2013-07-30 00:29:00,
2013-07-29 20:30:00,68.6,56.4,30.09,SW,236,0.0,0.0,65,0.00,,---,0.00,VWS V14.01,2013-07-30 00:30:00,
2013-07-29 20:31:00,68.6,56.4,30.09,SW,236,0.0,0.0,65,0.00,,---,0.00,VWS V14.01,2013-07-30 00:31:00,
2013-07-29 20:34:00,68.4,56.2,30.09,SW,236,0.0,0.0,65,0.00,,---,0.00,VWS V14.01,2013-07-30 00:34:00,
2013-07-29 20:35:00,68.3,56.1,30.09,SW,236,0.0,0.0,65,0.00,,---,0.00,VWS V14.01,2013-07-30 00:35:00,
2013-07-29 20:37:00,68.1,55.9,30.09,SW,236,0.0,0.0,65,0.00,,---,0.00,VWS V14.01,2013-07-30 00:37:00,
2013-07-29 20:39:00,67.9,55.7,30.09,SW,236,0.0,0.0,65,0.00,,---,0.00,VWS V14.01,2013-07-30 00:39:00,
2013-07-29 20:40:00,67.8,55.6,30.09,SW,236,0.0,0.0,65,0.00,,---,0.00,VWS V14.01,2013-07-30 00:40:00,
2013-07-29 20:41:00,67.8,55.6,30.09,SW,236,0.0,0.0,65,0.00,,---,0.00,VWS V14.01,2013-07-30 00:41:00,
2013-07-29 20:42:00,67.6,55.4,30.09,SW,236,0.0,0.0,65,0.00,,---,0.00,VWS V14.01,2013-07-30 00:42:00,
2013-07-29 20:44:00,67.4,55.2,30.09,SW,236,0.0,0.0,65,0.00,,---,0.00,VWS V14.01,2013-07-30 00:44:00,
2013-07-29 20:45:00,67.3,55.2,30.09,SW,236,0.0,0.0,65,0.00,,---,0.00,VWS V14.01,2013-07-30 00:45:00,
2013-07-29 20:46:00,67.3,55.2,30.09,SW,236,0.0,0.0,65,0.00,,---,0.00,VWS V14.01,2013-07-30 00:46:00,
2013-07-29 20:47:00,67.1,55.0,30.09,SW,236,0.0,0.0,65,0.00,,---,0.00,VWS V14.01,2013-07-30 00:47:00,
2013-07-29 20:50:00,66.9,55.2,30.10,SW,236,0.0,0.0,66,0.00,,---,0.00,VWS V14.01,2013-07-30 00:50:00,
2013-07-29 20:51:00,66.8,55.1,30.10,SW,236,0.0,0.0,66,0.00,,---,0.00,VWS V14.01,2013-07-30 00:51:00,
2013-07-29 20:52:00,66.6,54.9,30.10,SW,236,0.0,0.0,66,0.00,,---,0.00,VWS V14.01,2013-07-30 00:52:00,
2013-07-29 20:55:00,66.4,54.7,30.10,SW,236,0.0,0.0,66,0.00,,---,0.00,VWS V14.01,2013-07-30 00:55:00,
2013-07-29 20:56:00,66.4,55.1,30.10,SW,236,0.0,0.0,67,0.00,,---,0.00,VWS V14.01,2013-07-30 00:56:00,
2013-07-29 20:57:00,66.3,55.0,30.10,SW,236,0.0,0.0,67,0.00,,---,0.00,VWS V14.01,2013-07-30 00:57:00,
2013-07-29 21:01:00,66.0,54.7,30.10,SW,236,0.0,0.0,67,0.00,,---,0.00,VWS V14.01,2013-07-30 01:01:00,
2013-07-29 21:02:00,65.8,55.0,30.10,SW,236,0.0,0.0,68,0.00,,---,0.00,VWS V14.01,2013-07-30 01:02:00,
2013-07-29 21:03:00,65.8,55.0,30.10,SW,236,0.0,0.0,68,0.00,,---,0.00,VWS V14.01,2013-07-30 01:03:00,
2013-07-29 21:06:00,65.5,54.7,30.10,SW,236,0.0,0.0,68,0.00,,---,0.00,VWS V14.01,2013-07-30 01:06:00,
2013-07-29 21:07:00,65.5,54.7,30.10,SW,236,0.0,0.0,68,0.00,,---,0.00,VWS V14.01,2013-07-30 01:07:00,
2013-07-29 21:08:00,65.3,54.5,30.10,SW,236,0.0,0.0,68,0.00,,---,0.00,VWS V14.01,2013-07-30 01:08:00,
2013-07-29 21:11:00,65.2,54.4,30.10,SW,236,0.0,0.0,68,0.00,,---,0.00,VWS V14.01,2013-07-30 01:11:00,
2013-07-29 21:13:00,65.0,54.6,30.10,SW,236,0.0,0.0,69,0.00,,---,0.00,VWS V14.01,2013-07-30 01:13:00,
2013-07-29 21:16:00,64.8,54.4,30.10,SW,236,0.0,0.0,69,0.00,,---,0.00,VWS V14.01,2013-07-30 01:16:00,
2013-07-29 21:17:00,64.7,54.3,30.10,SW,236,0.0,0.0,69,0.00,,---,0.00,VWS V14.01,2013-07-30 01:17:00,
2013-07-29 21:18:00,64.7,54.3,30.10,SW,236,0.0,0.0,69,0.00,,---,0.00,VWS V14.01,2013-07-30 01:18:00,
2013-07-29 21:21:00,64.3,54.3,30.10,SW,236,0.0,0.0,70,0.00,,---,0.00,VWS V14.01,2013-07-30 01:21:00,
2013-07-29 21:22:00,64.3,54.3,30.10,SW,236,0.0,0.0,70,0.00,,---,0.00,VWS V14.01,2013-07-30 01:22:00,
2013-07-29 21:23:00,64.2,54.2,30.10,SW,236,0.0,0.0,70,0.00,,---,0.00,VWS V14.01,2013-07-30 01:23:00,
2013-07-29 21:24:00,64.2,54.2,30.10,SW,236,0.0,0.0,70,0.00,,---,0.00,VWS V14.01,2013-07-30 01:24:00,
2013-07-29 21:27:00,64.0,54.0,30.10,SW,236,0.0,0.0,70,0.00,,---,0.00,VWS V14.01,2013-07-30 01:27:00,
2013-07-29 21:28:00,64.0,54.0,30.10,SW,236,0.0,0.0,70,0.00,,---,0.00,VWS V14.01,2013-07-30 01:28:00,
2013-07-29 21:29:00,63.9,54.3,30.10,SW,236,0.0,0.0,71,0.00,,---,0.00,VWS V14.01,2013-07-30 01:29:00,
2013-07-29 21:32:00,63.7,54.1,30.10,SW,236,0.0,0.0,71,0.00,,---,0.00,VWS V14.01,2013-07-30 01:32:00,
2013-07-29 21:33:00,63.7,54.5,30.11,SW,236,0.0,0.0,72,0.00,,---,0.00,VWS V14.01,2013-07-30 01:33:00,
2013-07-29 21:34:00,63.5,54.3,30.11,SW,236,0.0,0.0,72,0.00,,---,0.00,VWS V14.01,2013-07-30 01:34:00,
2013-07-29 21:38:00,63.4,54.2,30.11,SW,236,0.0,0.0,72,0.00,,---,0.00,VWS V14.01,2013-07-30 01:38:00,
2013-07-29 21:39:00,63.4,54.6,30.11,SW,236,0.0,0.0,73,0.00,,---,0.00,VWS V14.01,2013-07-30 01:39:00,
2013-07-29 21:43:00,63.1,54.7,30.11,SW,236,0.0,0.0,74,0.00,,---,0.00,VWS V14.01,2013-07-30 01:43:00,
2013-07-29 21:44:00,62.9,54.5,30.11,SW,236,0.0,0.0,74,0.00,,---,0.00,VWS V14.01,2013-07-30 01:44:00,
2013-07-29 21:48:00,62.7,54.7,30.12,SW,236,0.0,0.0,75,0.00,,---,0.00,VWS V14.01,2013-07-30 01:48:00,
2013-07-29 21:49:00,62.6,54.6,30.12,SW,236,0.0,0.0,75,0.00,,---,0.00,VWS V14.01,2013-07-30 01:49:00,
2013-07-29 21:50:00,62.6,54.6,30.12,SW,236,0.0,0.0,75,0.00,,---,0.00,VWS V14.01,2013-07-30 01:50:00,
2013-07-29 21:51:00,62.6,54.6,30.12,SW,236,0.0,0.0,75,0.00,,---,0.00,VWS V14.01,2013-07-30 01:51:00,
2013-07-29 21:53:00,62.4,54.4,30.12,SW,236,0.0,0.0,75,0.00,,---,0.00,VWS V14.01,2013-07-30 01:53:00,
2013-07-29 21:55:00,62.3,54.3,30.12,SW,236,0.0,0.0,75,0.00,,---,0.00,VWS V14.01,2013-07-30 01:55:00,
2013-07-29 21:56:00,62.3,54.3,30.12,SW,236,0.0,0.0,75,0.00,,---,0.00,VWS V14.01,2013-07-30 01:56:00,
2013-07-29 21:59:00,62.1,54.1,30.12,SW,236,0.0,0.0,75,0.00,,---,0.00,VWS V14.01,2013-07-30 01:59:00,
2013-07-29 22:00:00,62.1,54.1,30.12,SW,236,0.0,0.0,75,0.00,,---,0.00,VWS V14.01,2013-07-30 02:00:00,
2013-07-29 22:01:00,62.0,54.4,30.12,SW,236,0.0,0.0,76,0.00,,---,0.00,VWS V14.01,2013-07-30 02:01:00,
2013-07-29 22:04:00,61.8,54.2,30.12,SW,236,0.0,0.0,76,0.00,,---,0.00,VWS V14.01,2013-07-30 02:04:00,
2013-07-29 22:05:00,61.8,54.2,30.12,SW,236,0.0,0.0,76,0.00,,---,0.00,VWS V14.01,2013-07-30 02:05:00,
2013-07-29 22:06:00,61.8,54.2,30.12,SW,236,0.0,0.0,76,0.00,,---,0.00,VWS V14.01,2013-07-30 02:06:00,
2013-07-29 22:09:00,61.6,54.0,30.12,SW,236,0.0,0.0,76,0.00,,---,0.00,VWS V14.01,2013-07-30 02:09:00,
2013-07-29 22:10:00,61.5,54.2,30.12,SW,236,0.0,0.0,77,0.00,,---,0.00,VWS V14.01,2013-07-30 02:10:00,
2013-07-29 22:11:00,61.5,54.2,30.12,SW,236,0.0,0.0,77,0.00,,---,0.00,VWS V14.01,2013-07-30 02:11:00,
2013-07-29 22:15:00,61.3,54.0,30.12,SW,236,0.0,0.0,77,0.00,,---,0.00,VWS V14.01,2013-07-30 02:15:00,
2013-07-29 22:17:00,61.3,54.0,30.12,SW,236,0.0,0.0,77,0.00,,---,0.00,VWS V14.01,2013-07-30 02:17:00,
2013-07-29 22:20:00,61.2,53.9,30.12,SW,236,0.0,0.0,77,0.00,,---,0.00,VWS V14.01,2013-07-30 02:20:00,
2013-07-29 22:21:00,61.0,53.8,30.12,SW,236,0.0,0.0,77,0.00,,---,0.00,VWS V14.01,2013-07-30 02:21:00,
2013-07-29 22:22:00,61.0,53.8,30.12,SW,236,0.0,0.0,77,0.00,,---,0.00,VWS V14.01,2013-07-30 02:22:00,
2013-07-29 22:25:00,60.9,53.7,30.12,SW,236,0.0,0.0,77,0.00,,---,0.00,VWS V14.01,2013-07-30 02:25:00,
2013-07-29 22:26:00,60.9,53.7,30.12,SW,236,0.0,0.0,77,0.00,,---,0.00,VWS V14.01,2013-07-30 02:26:00,
2013-07-29 22:27:00,60.9,53.7,30.12,SW,236,0.0,0.0,77,0.00,,---,0.00,VWS V14.01,2013-07-30 02:27:00,
2013-07-29 22:31:00,60.7,53.8,30.12,SW,236,0.0,0.0,78,0.00,,---,0.00,VWS V14.01,2013-07-30 02:31:00,
2013-07-29 22:32:00,60.7,53.8,30.12,SW,236,0.0,0.0,78,0.00,,---,0.00,VWS V14.01,2013-07-30 02:32:00,
2013-07-29 22:34:00,60.7,53.8,30.12,SW,236,0.0,0.0,78,0.00,,---,0.00,VWS V14.01,2013-07-30 02:34:00,
2013-07-29 22:36:00,60.5,53.6,30.12,SW,236,0.0,0.0,78,0.00,,---,0.00,VWS V14.01,2013-07-30 02:36:00,
2013-07-29 22:37:00,60.5,53.6,30.12,SW,236,0.0,0.0,78,0.00,,---,0.00,VWS V14.01,2013-07-30 02:37:00,
2013-07-29 22:38:00,60.5,53.6,30.12,SW,236,0.0,0.0,78,0.00,,---,0.00,VWS V14.01,2013-07-30 02:38:00,
2013-07-29 22:39:00,60.5,53.6,30.12,SW,236,0.0,0.0,78,0.00,,---,0.00,VWS V14.01,2013-07-30 02:39:00,
2013-07-29 22:42:00,60.4,53.5,30.12,SW,236,0.0,0.0,78,0.00,,---,0.00,VWS V14.01,2013-07-30 02:42:00,
2013-07-29 22:43:00,60.4,53.5,30.12,SW,236,0.0,0.0,78,0.00,,---,0.00,VWS V14.01,2013-07-30 02:43:00,
2013-07-29 22:45:00,60.4,53.5,30.12,SW,236,0.0,0.0,78,0.00,,---,0.00,VWS V14.01,2013-07-30 02:45:00,
2013-07-29 22:48:00,60.2,53.3,30.12,SW,236,0.0,0.0,78,0.00,,---,0.00,VWS V14.01,2013-07-30 02:48:00,
2013-07-29 22:50:00,60.2,53.7,30.12,SW,236,0.0,0.0,79,0.00,,---,0.00,VWS V14.01,2013-07-30 02:50:00,
2013-07-29 22:53:00,60.1,53.6,30.12,SW,236,0.0,0.0,79,0.00,,---,0.00,VWS V14.01,2013-07-30 02:53:00,
2013-07-29 22:56:00,60.1,53.6,30.12,SW,236,0.0,0.0,79,0.00,,---,0.00,VWS V14.01,2013-07-30 02:56:00,
2013-07-29 22:58:00,60.1,53.6,30.12,SW,236,0.0,0.0,79,0.00,,---,0.00,VWS V14.01,2013-07-30 02:58:00,
2013-07-29 23:02:00,59.9,53.4,30.12,SW,236,0.0,0.0,79,0.00,,---,0.00,VWS V14.01,2013-07-30 03:02:00,
2013-07-29 23:03:00,59.9,53.4,30.12,SW,236,0.0,0.0,79,0.00,,---,0.00,VWS V14.01,2013-07-30 03:03:00,
2013-07-29 23:07:00,59.8,53.3,30.12,SW,236,0.0,0.0,79,0.00,,---,0.00,VWS V14.01,2013-07-30 03:07:00,
2013-07-29 23:08:00,59.8,53.3,30.12,SW,236,0.0,0.0,79,0.00,,---,0.00,VWS V14.01,2013-07-30 03:08:00,
2013-07-29 23:13:00,59.6,53.1,30.12,SW,236,0.0,0.0,79,0.00,,---,0.00,VWS V14.01,2013-07-30 03:13:00,
2013-07-29 23:14:00,59.6,53.1,30.12,SW,236,0.0,0.0,79,0.00,,---,0.00,VWS V14.01,2013-07-30 03:14:00,
2013-07-29 23:18:00,59.5,53.0,30.13,SW,236,0.0,0.0,79,0.00,,---,0.00,VWS V14.01,2013-07-30 03:18:00,
2013-07-29 23:19:00,59.5,53.0,30.13,SW,236,0.0,0.0,79,0.00,,---,0.00,VWS V14.01,2013-07-30 03:19:00,
2013-07-29 23:23:00,59.5,53.0,30.13,SW,236,0.0,0.0,79,0.00,,---,0.00,VWS V14.01,2013-07-30 03:23:00,
2013-07-29 23:24:00,59.3,52.8,30.13,SW,236,0.0,0.0,79,0.00,,---,0.00,VWS V14.01,2013-07-30 03:24:00,
2013-07-29 23:28:00,59.3,52.8,30.13,SW,236,0.0,0.0,79,0.00,,---,0.00,VWS V14.01,2013-07-30 03:28:00,
2013-07-29 23:29:00,59.3,52.8,30.13,SW,236,0.0,0.0,79,0.00,,---,0.00,VWS V14.01,2013-07-30 03:29:00,
2013-07-29 23:30:00,59.2,52.7,30.13,SW,236,0.0,0.0,79,0.00,,---,0.00,VWS V14.01,2013-07-30 03:30:00,
2013-07-29 23:34:00,59.2,53.0,30.13,SW,236,0.0,0.0,80,0.00,,---,0.00,VWS V14.01,2013-07-30 03:34:00,
2013-07-29 23:35:00,59.2,53.0,30.13,SW,236,0.0,0.0,80,0.00,,---,0.00,VWS V14.01,2013-07-30 03:35:00,
2013-07-29 23:39:00,59.0,52.8,30.13,SW,236,0.0,0.0,80,0.00,,---,0.00,VWS V14.01,2013-07-30 03:39:00,
2013-07-29 23:40:00,59.0,52.8,30.13,SW,236,0.0,0.0,80,0.00,,---,0.00,VWS V14.01,2013-07-30 03:40:00,
2013-07-29 23:44:00,58.9,52.8,30.13,SW,236,0.0,0.0,80,0.00,,---,0.00,VWS V14.01,2013-07-30 03:44:00,
2013-07-29 23:45:00,58.9,52.8,30.13,SW,236,0.0,0.0,80,0.00,,---,0.00,VWS V14.01,2013-07-30 03:45:00,
2013-07-29 23:49:00,58.7,52.6,30.12,SW,236,0.0,0.0,80,0.00,,---,0.00,VWS V14.01,2013-07-30 03:49:00,
2013-07-29 23:50:00,58.7,52.6,30.12,SW,236,0.0,0.0,80,0.00,,---,0.00,VWS V14.01,2013-07-30 03:50:00,
2013-07-29 23:51:00,58.7,52.6,30.12,SW,236,0.0,0.0,80,0.00,,---,0.00,VWS V14.01,2013-07-30 03:51:00,
2013-07-29 23:54:00,58.7,52.9,30.12,SW,236,0.0,0.0,81,0.00,,---,0.00,VWS V14.01,2013-07-30 03:54:00,
2013-07-29 23:55:00,58.7,52.9,30.12,SW,236,0.0,0.0,81,0.00,,---,0.00,VWS V14.01,2013-07-30 03:55:00,
2013-07-29 23:56:00,58.7,52.9,30.12,SW,236,0.0,0.0,81,0.00,,---,0.00,VWS V14.01,2013-07-30 03:56:00,